AXX256 KMCO-GOBD
Flight info
| Callsign | AXX256 |
|---|---|
| Flight time | 7h 1m |
| Altitude | 37000 |
| Route | MZULO3 LENDS M203 SNAGY 2960N 2957N 2950N 2945N 2842N 2740N 2434N ULTEM UR976 LUMPO R976 LIGOV |
| Aircraft | A346/H-SDE2E3FGHIJ3J4J5M1RWXY/LB1D1 |
Departure
| Time | 2026-04-25 11:40 |
|---|---|
| Airport | Orlando International Airport (KMCO) |
Arrival
| Time | 2026-04-25 18:41 |
|---|---|
| Airport | Blaise Diagne International Airport (GOBD) |
| Time | Latitude | Longitude | Altitude | Speed | Heading |
|---|---|---|---|---|---|
| 2026-04-25 10:41 | 28.41234 | -81.31627 | 95 ft | 0 kts | 179° |
| 2026-04-25 10:42 | 28.41368 | -81.31467 | 95 ft | 0 kts | 92° |
| 2026-04-25 11:18 | 28.41368 | -81.31479 | 95 ft | 2 kts | 93° |
| 2026-04-25 11:19 | 28.41369 | -81.31496 | 95 ft | 2 kts | 94° |
| 2026-04-25 11:19 | 28.41370 | -81.31512 | 95 ft | 2 kts | 94° |
| 2026-04-25 11:19 | 28.41371 | -81.31529 | 95 ft | 1 kts | 93° |
| 2026-04-25 11:19 | 28.41371 | -81.31541 | 95 ft | 2 kts | 76° |
| 2026-04-25 11:20 | 28.41363 | -81.31554 | 95 ft | 2 kts | 35° |
| 2026-04-25 11:20 | 28.41352 | -81.31561 | 95 ft | 0 kts | 6° |
| 2026-04-25 11:20 | 28.41347 | -81.31561 | 95 ft | 0 kts | 5° |
| 2026-04-25 11:24 | 28.41348 | -81.31561 | 95 ft | 0 kts | 5° |
| 2026-04-25 11:24 | 28.41363 | -81.31559 | 95 ft | 3 kts | 5° |
| 2026-04-25 11:24 | 28.41401 | -81.31555 | 95 ft | 6 kts | 5° |
| 2026-04-25 11:25 | 28.41459 | -81.31549 | 96 ft | 9 kts | 5° |
| 2026-04-25 11:25 | 28.41532 | -81.31541 | 96 ft | 11 kts | 6° |
| 2026-04-25 11:25 | 28.41606 | -81.31574 | 96 ft | 12 kts | 307° |
| 2026-04-25 11:25 | 28.41644 | -81.31660 | 97 ft | 8 kts | 297° |
| 2026-04-25 11:26 | 28.41651 | -81.31675 | 97 ft | 0 kts | 297° |
| 2026-04-25 11:27 | 28.41656 | -81.31686 | 97 ft | 2 kts | 297° |
| 2026-04-25 11:27 | 28.41668 | -81.31712 | 97 ft | 4 kts | 297° |
| 2026-04-25 11:27 | 28.41689 | -81.31755 | 98 ft | 7 kts | 302° |
| 2026-04-25 11:27 | 28.41715 | -81.31782 | 98 ft | 8 kts | 333° |
| 2026-04-25 11:28 | 28.41809 | -81.31793 | 98 ft | 11 kts | 359° |
| 2026-04-25 11:28 | 28.41896 | -81.31794 | 99 ft | 13 kts | 360° |
| 2026-04-25 11:28 | 28.41994 | -81.31794 | 99 ft | 14 kts | 0° |
| 2026-04-25 11:28 | 28.42088 | -81.31792 | 99 ft | 12 kts | 6° |
| 2026-04-25 11:29 | 28.42137 | -81.31781 | 99 ft | 0 kts | 14° |
| 2026-04-25 11:31 | 28.42149 | -81.31778 | 99 ft | 7 kts | 14° |
| 2026-04-25 11:31 | 28.42224 | -81.31754 | 99 ft | 12 kts | 26° |
| 2026-04-25 11:31 | 28.42264 | -81.31667 | 98 ft | 14 kts | 88° |
| 2026-04-25 11:32 | 28.42266 | -81.31548 | 97 ft | 16 kts | 90° |
| 2026-04-25 11:32 | 28.42266 | -81.31414 | 96 ft | 17 kts | 90° |
| 2026-04-25 11:32 | 28.42279 | -81.31293 | 96 ft | 9 kts | 52° |
| 2026-04-25 11:32 | 28.42326 | -81.31271 | 96 ft | 6 kts | 33° |
| 2026-04-25 11:33 | 28.42340 | -81.31209 | 96 ft | 17 kts | 94° |
| 2026-04-25 11:33 | 28.42322 | -81.31067 | 96 ft | 18 kts | 98° |
| 2026-04-25 11:33 | 28.42316 | -81.30922 | 96 ft | 17 kts | 86° |
| 2026-04-25 11:33 | 28.42327 | -81.30783 | 96 ft | 16 kts | 85° |
| 2026-04-25 11:34 | 28.42337 | -81.30656 | 97 ft | 16 kts | 86° |
| 2026-04-25 11:34 | 28.42345 | -81.30521 | 98 ft | 18 kts | 86° |
| 2026-04-25 11:34 | 28.42353 | -81.30357 | 98 ft | 22 kts | 87° |
| 2026-04-25 11:34 | 28.42359 | -81.30182 | 99 ft | 22 kts | 89° |
| 2026-04-25 11:35 | 28.42361 | -81.30001 | 99 ft | 22 kts | 90° |
| 2026-04-25 11:35 | 28.42362 | -81.29821 | 99 ft | 23 kts | 90° |
| 2026-04-25 11:35 | 28.42410 | -81.29703 | 99 ft | 16 kts | 13° |
| 2026-04-25 11:35 | 28.42528 | -81.29700 | 99 ft | 17 kts | 359° |
| 2026-04-25 11:36 | 28.42654 | -81.29704 | 99 ft | 18 kts | 360° |
| 2026-04-25 11:36 | 28.42784 | -81.29704 | 99 ft | 18 kts | 0° |
| 2026-04-25 11:36 | 28.42894 | -81.29703 | 100 ft | 14 kts | 0° |
| 2026-04-25 11:36 | 28.42970 | -81.29703 | 100 ft | 7 kts | 360° |
| 2026-04-25 11:37 | 28.43030 | -81.29704 | 100 ft | 9 kts | 358° |
| 2026-04-25 11:37 | 28.43121 | -81.29707 | 100 ft | 16 kts | 359° |
| 2026-04-25 11:37 | 28.43228 | -81.29708 | 100 ft | 8 kts | 360° |
| 2026-04-25 11:37 | 28.43300 | -81.29709 | 100 ft | 14 kts | 359° |
| 2026-04-25 11:38 | 28.43403 | -81.29707 | 100 ft | 11 kts | 17° |
| 2026-04-25 11:38 | 28.43437 | -81.29643 | 100 ft | 10 kts | 85° |
| 2026-04-25 11:38 | 28.43395 | -81.29591 | 100 ft | 8 kts | 171° |
| 2026-04-25 11:38 | 28.43387 | -81.29591 | 100 ft | 0 kts | 175° |
| 2026-04-25 11:39 | 28.43377 | -81.29590 | 100 ft | 12 kts | 176° |
| 2026-04-25 11:39 | 28.43044 | -81.29582 | 100 ft | 82 kts | 179° |
| 2026-04-25 11:39 | 28.42252 | -81.29573 | 99 ft | 141 kts | 180° |
| 2026-04-25 11:39 | 28.41098 | -81.29563 | 216 ft | 177 kts | 179° |
| 2026-04-25 11:40 | 28.39875 | -81.29546 | 740 ft | 177 kts | 179° |
| 2026-04-25 11:40 | 28.38639 | -81.29494 | 1301 ft | 181 kts | 169° |
| 2026-04-25 11:40 | 28.37486 | -81.28934 | 1836 ft | 183 kts | 148° |
| 2026-04-25 11:40 | 28.36407 | -81.28098 | 2204 ft | 197 kts | 145° |
| 2026-04-25 11:41 | 28.35255 | -81.27138 | 2520 ft | 213 kts | 141° |
| 2026-04-25 11:41 | 28.34111 | -81.25938 | 2825 ft | 233 kts | 134° |
| 2026-04-25 11:41 | 28.33146 | -81.24399 | 3117 ft | 255 kts | 108° |
| 2026-04-25 11:41 | 28.33088 | -81.22344 | 3603 ft | 270 kts | 74° |
| 2026-04-25 11:42 | 28.33823 | -81.20370 | 4333 ft | 274 kts | 64° |
| 2026-04-25 11:42 | 28.34688 | -81.18452 | 5050 ft | 277 kts | 64° |
| 2026-04-25 11:42 | 28.35532 | -81.16486 | 5728 ft | 280 kts | 66° |
| 2026-04-25 11:42 | 28.36336 | -81.14473 | 6380 ft | 283 kts | 67° |
| 2026-04-25 11:43 | 28.37118 | -81.12406 | 7011 ft | 286 kts | 68° |
| 2026-04-25 11:43 | 28.37883 | -81.10316 | 7621 ft | 289 kts | 68° |
| 2026-04-25 11:43 | 28.38636 | -81.08221 | 8215 ft | 292 kts | 68° |
| 2026-04-25 11:43 | 28.39402 | -81.06065 | 8807 ft | 295 kts | 68° |
| 2026-04-25 11:44 | 28.40170 | -81.03898 | 9390 ft | 298 kts | 67° |
| 2026-04-25 11:44 | 28.40931 | -81.01744 | 9973 ft | 299 kts | 67° |
| 2026-04-25 11:44 | 28.41713 | -80.99529 | 10448 ft | 305 kts | 67° |
| 2026-04-25 11:44 | 28.42520 | -80.97241 | 10700 ft | 319 kts | 67° |
| 2026-04-25 11:45 | 28.43364 | -80.94846 | 10957 ft | 333 kts | 67° |
| 2026-04-25 11:45 | 28.44233 | -80.92381 | 11213 ft | 347 kts | 66° |
| 2026-04-25 11:45 | 28.45148 | -80.89781 | 11479 ft | 362 kts | 66° |
| 2026-04-25 11:45 | 28.46100 | -80.87065 | 11752 ft | 377 kts | 66° |
| 2026-04-25 11:46 | 28.47033 | -80.84219 | 12025 ft | 392 kts | 71° |
| 2026-04-25 11:46 | 28.47742 | -80.81225 | 12512 ft | 400 kts | 77° |
| 2026-04-25 11:46 | 28.48211 | -80.78067 | 13123 ft | 404 kts | 81° |
| 2026-04-25 11:46 | 28.48570 | -80.74897 | 13695 ft | 408 kts | 82° |
| 2026-04-25 11:47 | 28.48912 | -80.71694 | 14237 ft | 413 kts | 82° |
| 2026-04-25 11:47 | 28.49259 | -80.68459 | 14778 ft | 416 kts | 82° |
| 2026-04-25 11:47 | 28.49614 | -80.65182 | 15315 ft | 420 kts | 82° |
| 2026-04-25 11:47 | 28.49975 | -80.61880 | 15841 ft | 424 kts | 81° |
| 2026-04-25 11:48 | 28.50339 | -80.58569 | 16357 ft | 427 kts | 81° |
| 2026-04-25 11:48 | 28.50704 | -80.55245 | 16865 ft | 430 kts | 81° |
| 2026-04-25 11:48 | 28.51080 | -80.51829 | 17374 ft | 434 kts | 81° |
| 2026-04-25 11:48 | 28.51451 | -80.48453 | 17867 ft | 437 kts | 81° |
| 2026-04-25 11:49 | 28.51830 | -80.44989 | 18358 ft | 440 kts | 81° |
| 2026-04-25 11:49 | 28.52210 | -80.41518 | 18830 ft | 444 kts | 81° |
| 2026-04-25 11:49 | 28.52589 | -80.38040 | 19293 ft | 447 kts | 81° |
| 2026-04-25 11:49 | 28.52969 | -80.34536 | 19754 ft | 450 kts | 81° |
| 2026-04-25 11:50 | 28.53486 | -80.31029 | 20183 ft | 452 kts | 75° |
| 2026-04-25 11:50 | 28.54293 | -80.27605 | 20614 ft | 454 kts | 70° |
| 2026-04-25 11:50 | 28.55395 | -80.24244 | 21048 ft | 455 kts | 65° |
| 2026-04-25 11:50 | 28.56649 | -80.20907 | 21480 ft | 458 kts | 64° |
| 2026-04-25 11:51 | 28.57924 | -80.17593 | 21893 ft | 461 kts | 64° |
| 2026-04-25 11:51 | 28.59207 | -80.14260 | 22301 ft | 464 kts | 64° |
| 2026-04-25 11:51 | 28.60502 | -80.10876 | 22709 ft | 467 kts | 64° |
| 2026-04-25 11:51 | 28.61795 | -80.07475 | 23111 ft | 470 kts | 64° |
| 2026-04-25 11:52 | 28.63084 | -80.04074 | 23503 ft | 472 kts | 64° |
| 2026-04-25 11:52 | 28.64379 | -80.00648 | 23889 ft | 475 kts | 65° |
| 2026-04-25 11:52 | 28.65680 | -79.97201 | 24275 ft | 478 kts | 65° |
| 2026-04-25 11:52 | 28.66987 | -79.93733 | 24662 ft | 480 kts | 65° |
| 2026-04-25 11:53 | 28.68302 | -79.90241 | 25068 ft | 483 kts | 65° |
| 2026-04-25 11:53 | 28.69626 | -79.86717 | 25469 ft | 486 kts | 65° |
| 2026-04-25 11:53 | 28.70955 | -79.83179 | 25866 ft | 488 kts | 65° |
| 2026-04-25 11:53 | 28.72292 | -79.79617 | 26263 ft | 491 kts | 65° |
| 2026-04-25 11:54 | 28.73631 | -79.76044 | 26653 ft | 494 kts | 65° |
| 2026-04-25 11:54 | 28.74978 | -79.72446 | 27034 ft | 497 kts | 65° |
| 2026-04-25 11:54 | 28.77701 | -79.65160 | 27798 ft | 501 kts | 65° |
| 2026-04-25 11:55 | 28.79079 | -79.61533 | 28281 ft | 500 kts | 63° |
| 2026-04-25 11:55 | 28.80598 | -79.58003 | 28808 ft | 496 kts | 60° |
| 2026-04-25 11:55 | 28.82272 | -79.54605 | 29338 ft | 493 kts | 57° |
| 2026-04-25 11:55 | 28.84121 | -79.51303 | 29849 ft | 491 kts | 53° |
| 2026-04-25 11:56 | 28.86058 | -79.48164 | 30374 ft | 489 kts | 52° |
| 2026-04-25 11:56 | 28.88055 | -79.44993 | 30912 ft | 488 kts | 52° |
| 2026-04-25 11:56 | 28.90042 | -79.41849 | 31449 ft | 486 kts | 52° |
| 2026-04-25 11:56 | 28.92006 | -79.38735 | 31975 ft | 484 kts | 52° |
| 2026-04-25 11:57 | 28.93970 | -79.35614 | 32471 ft | 482 kts | 52° |
| 2026-04-25 11:57 | 28.95906 | -79.32533 | 32896 ft | 481 kts | 52° |
| 2026-04-25 11:57 | 28.97866 | -79.29406 | 33035 ft | 480 kts | 52° |
| 2026-04-25 11:58 | 29.01722 | -79.23244 | 33058 ft | 479 kts | 52° |
| 2026-04-25 11:58 | 29.05586 | -79.17056 | 33031 ft | 478 kts | 52° |
| 2026-04-25 11:59 | 29.09432 | -79.10889 | 32974 ft | 477 kts | 52° |
| 2026-04-25 11:59 | 29.13273 | -79.04719 | 32918 ft | 484 kts | 52° |
| 2026-04-25 12:00 | 29.17244 | -78.98333 | 32924 ft | 497 kts | 53° |
| 2026-04-25 12:00 | 29.19235 | -78.95125 | 32932 ft | 498 kts | 53° |
| 2026-04-25 12:01 | 29.25239 | -78.85432 | 32944 ft | 499 kts | 53° |
| 2026-04-25 12:01 | 29.29270 | -78.78909 | 32948 ft | 499 kts | 53° |
| 2026-04-25 12:02 | 29.34966 | -78.68976 | 32945 ft | 500 kts | 59° |
| 2026-04-25 12:02 | 29.37940 | -78.61754 | 32944 ft | 501 kts | 67° |
| 2026-04-25 12:03 | 29.40024 | -78.54134 | 32944 ft | 503 kts | 76° |
| 2026-04-25 12:03 | 29.41239 | -78.46261 | 32945 ft | 504 kts | 81° |
| 2026-04-25 12:04 | 29.42239 | -78.38300 | 32945 ft | 504 kts | 81° |
| 2026-04-25 12:04 | 29.43237 | -78.30365 | 32945 ft | 503 kts | 81° |
| 2026-04-25 12:05 | 29.44240 | -78.22447 | 32946 ft | 503 kts | 81° |
| 2026-04-25 12:05 | 29.45245 | -78.14499 | 32946 ft | 503 kts | 81° |
| 2026-04-25 12:06 | 29.46238 | -78.06615 | 32947 ft | 502 kts | 81° |
| 2026-04-25 12:06 | 29.47229 | -77.98711 | 32947 ft | 502 kts | 81° |
| 2026-04-25 12:07 | 29.48219 | -77.90768 | 32944 ft | 501 kts | 81° |
| 2026-04-25 12:07 | 29.49196 | -77.82893 | 32944 ft | 501 kts | 81° |
| 2026-04-25 12:08 | 29.50166 | -77.75017 | 32955 ft | 500 kts | 81° |
| 2026-04-25 12:08 | 29.51137 | -77.67119 | 32962 ft | 498 kts | 81° |
| 2026-04-25 12:09 | 29.52094 | -77.59304 | 32961 ft | 498 kts | 81° |
| 2026-04-25 12:09 | 29.53054 | -77.51406 | 32961 ft | 498 kts | 81° |
| 2026-04-25 12:10 | 29.54001 | -77.43561 | 32961 ft | 498 kts | 81° |
| 2026-04-25 12:10 | 29.54945 | -77.35689 | 32963 ft | 499 kts | 81° |
| 2026-04-25 12:11 | 29.55887 | -77.27799 | 32967 ft | 499 kts | 82° |
| 2026-04-25 12:11 | 29.56818 | -77.19965 | 32976 ft | 499 kts | 82° |
| 2026-04-25 12:12 | 29.57748 | -77.12090 | 32982 ft | 499 kts | 82° |
| 2026-04-25 12:12 | 29.58673 | -77.04212 | 32984 ft | 498 kts | 82° |
| 2026-04-25 12:13 | 29.59593 | -76.96332 | 32983 ft | 498 kts | 82° |
| 2026-04-25 12:13 | 29.60491 | -76.88463 | 32982 ft | 498 kts | 83° |
| 2026-04-25 12:14 | 29.60922 | -76.80521 | 32980 ft | 498 kts | 88° |
| 2026-04-25 12:14 | 29.61131 | -76.72588 | 32975 ft | 497 kts | 88° |
| 2026-04-25 12:15 | 29.61329 | -76.64686 | 32971 ft | 497 kts | 88° |
| 2026-04-25 12:15 | 29.61527 | -76.56765 | 32970 ft | 497 kts | 88° |
| 2026-04-25 12:16 | 29.61720 | -76.48862 | 32969 ft | 497 kts | 88° |
| 2026-04-25 12:16 | 29.61912 | -76.40922 | 32968 ft | 496 kts | 88° |
| 2026-04-25 12:17 | 29.62097 | -76.33042 | 32967 ft | 496 kts | 88° |
| 2026-04-25 12:17 | 29.62279 | -76.25143 | 32966 ft | 495 kts | 88° |
| 2026-04-25 12:18 | 29.62457 | -76.17252 | 32966 ft | 495 kts | 88° |
| 2026-04-25 12:18 | 29.62629 | -76.09383 | 32966 ft | 494 kts | 88° |
| 2026-04-25 12:19 | 29.62878 | -75.97575 | 32966 ft | 494 kts | 88° |
| 2026-04-25 12:20 | 29.63038 | -75.89696 | 32965 ft | 494 kts | 88° |
| 2026-04-25 12:20 | 29.63194 | -75.81822 | 32964 ft | 494 kts | 88° |
| 2026-04-25 12:21 | 29.63346 | -75.73921 | 32965 ft | 494 kts | 88° |
| 2026-04-25 12:21 | 29.63492 | -75.66075 | 32965 ft | 494 kts | 88° |
| 2026-04-25 12:22 | 29.63635 | -75.58155 | 32965 ft | 494 kts | 88° |
| 2026-04-25 12:22 | 29.63772 | -75.50282 | 32965 ft | 495 kts | 88° |
| 2026-04-25 12:23 | 29.63904 | -75.42411 | 32965 ft | 495 kts | 88° |
| 2026-04-25 12:23 | 29.64033 | -75.34502 | 32969 ft | 496 kts | 89° |
| 2026-04-25 12:24 | 29.64156 | -75.26604 | 32974 ft | 496 kts | 89° |
| 2026-04-25 12:24 | 29.64275 | -75.18714 | 32977 ft | 496 kts | 89° |
| 2026-04-25 12:25 | 29.64390 | -75.10794 | 32977 ft | 496 kts | 89° |
| 2026-04-25 12:25 | 29.64499 | -75.02925 | 32977 ft | 497 kts | 89° |
| 2026-04-25 12:26 | 29.64606 | -74.94969 | 32977 ft | 497 kts | 89° |
| 2026-04-25 12:26 | 29.64708 | -74.87073 | 32977 ft | 497 kts | 89° |
| 2026-04-25 12:27 | 29.64804 | -74.79147 | 32978 ft | 497 kts | 89° |
| 2026-04-25 12:27 | 29.64896 | -74.71197 | 32979 ft | 497 kts | 89° |
| 2026-04-25 12:28 | 29.64982 | -74.63297 | 32980 ft | 498 kts | 89° |
| 2026-04-25 12:28 | 29.65064 | -74.55352 | 32980 ft | 498 kts | 88° |
| 2026-04-25 12:29 | 29.65140 | -74.47442 | 32979 ft | 498 kts | 88° |
| 2026-04-25 12:29 | 29.65212 | -74.39506 | 32976 ft | 498 kts | 88° |
| 2026-04-25 12:30 | 29.65280 | -74.31533 | 32973 ft | 498 kts | 89° |
| 2026-04-25 12:30 | 29.65343 | -74.23595 | 32968 ft | 498 kts | 89° |
| 2026-04-25 12:31 | 29.65401 | -74.15665 | 32964 ft | 498 kts | 89° |
| 2026-04-25 12:31 | 29.65454 | -74.07732 | 32963 ft | 498 kts | 89° |
| 2026-04-25 12:32 | 29.65503 | -73.99801 | 32963 ft | 498 kts | 89° |
| 2026-04-25 12:32 | 29.65547 | -73.91903 | 32963 ft | 498 kts | 89° |
| 2026-04-25 12:33 | 29.65586 | -73.83976 | 32962 ft | 498 kts | 89° |
| 2026-04-25 12:33 | 29.65622 | -73.76015 | 32961 ft | 498 kts | 89° |
| 2026-04-25 12:34 | 29.65651 | -73.68102 | 32962 ft | 498 kts | 89° |
| 2026-04-25 12:34 | 29.65677 | -73.60091 | 32962 ft | 498 kts | 89° |
| 2026-04-25 12:35 | 29.65697 | -73.52187 | 32963 ft | 498 kts | 89° |
| 2026-04-25 12:35 | 29.65713 | -73.44219 | 32963 ft | 498 kts | 89° |
| 2026-04-25 12:36 | 29.65724 | -73.36315 | 32962 ft | 498 kts | 89° |
| 2026-04-25 12:36 | 29.65730 | -73.28368 | 32959 ft | 498 kts | 89° |
| 2026-04-25 12:37 | 29.65731 | -73.20412 | 32956 ft | 498 kts | 89° |
| 2026-04-25 12:37 | 29.65727 | -73.12483 | 32955 ft | 499 kts | 89° |
| 2026-04-25 12:38 | 29.65719 | -73.04506 | 32955 ft | 499 kts | 89° |
| 2026-04-25 12:38 | 29.65706 | -72.96574 | 32955 ft | 499 kts | 89° |
| 2026-04-25 12:39 | 29.65688 | -72.88614 | 32955 ft | 499 kts | 89° |
| 2026-04-25 12:39 | 29.65665 | -72.80633 | 32956 ft | 499 kts | 89° |
| 2026-04-25 12:40 | 29.65637 | -72.72714 | 32956 ft | 499 kts | 89° |
| 2026-04-25 12:40 | 29.65605 | -72.64756 | 32956 ft | 498 kts | 89° |
| 2026-04-25 12:41 | 29.65567 | -72.56795 | 32956 ft | 498 kts | 89° |
| 2026-04-25 12:41 | 29.65529 | -72.48897 | 32956 ft | 497 kts | 89° |
| 2026-04-25 12:42 | 29.65486 | -72.40961 | 32956 ft | 497 kts | 89° |
| 2026-04-25 12:42 | 29.65436 | -72.33044 | 32956 ft | 496 kts | 89° |
| 2026-04-25 12:43 | 29.65380 | -72.25092 | 32956 ft | 496 kts | 89° |
| 2026-04-25 12:43 | 29.65289 | -72.13256 | 32956 ft | 496 kts | 89° |
| 2026-04-25 12:44 | 29.65223 | -72.05386 | 32955 ft | 495 kts | 89° |
| 2026-04-25 12:45 | 29.65114 | -71.93483 | 32952 ft | 495 kts | 89° |
| 2026-04-25 12:45 | 29.64995 | -71.81638 | 32952 ft | 495 kts | 89° |
| 2026-04-25 12:46 | 29.64910 | -71.73789 | 32951 ft | 495 kts | 89° |
| 2026-04-25 12:46 | 29.64819 | -71.65853 | 32951 ft | 496 kts | 89° |
| 2026-04-25 12:47 | 29.64724 | -71.57955 | 32951 ft | 496 kts | 89° |
| 2026-04-25 12:47 | 29.64625 | -71.50025 | 32951 ft | 497 kts | 89° |
| 2026-04-25 12:48 | 29.64521 | -71.42139 | 32951 ft | 498 kts | 89° |
| 2026-04-25 12:48 | 29.64410 | -71.34148 | 32951 ft | 499 kts | 90° |
| 2026-04-25 12:49 | 29.64296 | -71.26221 | 32951 ft | 500 kts | 90° |
| 2026-04-25 12:49 | 29.64176 | -71.18247 | 32952 ft | 501 kts | 90° |
| 2026-04-25 12:50 | 29.64051 | -71.10244 | 32952 ft | 503 kts | 90° |
| 2026-04-25 12:50 | 29.63922 | -71.02250 | 32952 ft | 504 kts | 90° |
| 2026-04-25 12:51 | 29.63787 | -70.94177 | 32954 ft | 505 kts | 91° |
| 2026-04-25 12:51 | 29.63647 | -70.86145 | 32956 ft | 507 kts | 91° |
| 2026-04-25 12:52 | 29.63500 | -70.78033 | 32959 ft | 508 kts | 91° |
| 2026-04-25 12:52 | 29.63350 | -70.69979 | 32959 ft | 509 kts | 91° |
| 2026-04-25 12:53 | 29.63194 | -70.61865 | 32959 ft | 509 kts | 91° |
| 2026-04-25 12:53 | 29.63032 | -70.53738 | 32959 ft | 510 kts | 91° |
| 2026-04-25 12:54 | 29.62865 | -70.45589 | 32959 ft | 511 kts | 91° |
| 2026-04-25 12:54 | 29.62694 | -70.37437 | 32958 ft | 511 kts | 91° |
| 2026-04-25 12:55 | 29.62548 | -70.30662 | 32956 ft | 512 kts | 92° |
| 2026-04-25 12:55 | 29.62335 | -70.21107 | 32957 ft | 513 kts | 92° |
| 2026-04-25 12:56 | 29.62147 | -70.12943 | 32957 ft | 513 kts | 92° |
| 2026-04-25 12:56 | 29.61956 | -70.04802 | 32957 ft | 513 kts | 92° |
| 2026-04-25 12:57 | 29.61758 | -69.96626 | 32957 ft | 514 kts | 92° |
| 2026-04-25 12:57 | 29.61556 | -69.88448 | 32957 ft | 514 kts | 92° |
| 2026-04-25 12:58 | 29.61349 | -69.80231 | 32957 ft | 515 kts | 92° |
| 2026-04-25 12:58 | 29.61137 | -69.72058 | 32957 ft | 515 kts | 92° |
| 2026-04-25 12:59 | 29.60917 | -69.63811 | 32957 ft | 516 kts | 92° |
| 2026-04-25 12:59 | 29.60691 | -69.55586 | 32958 ft | 516 kts | 92° |
| 2026-04-25 13:00 | 29.60501 | -69.48748 | 32959 ft | 517 kts | 92° |
| 2026-04-25 13:00 | 29.60229 | -69.39151 | 32959 ft | 517 kts | 93° |
| 2026-04-25 13:01 | 29.59988 | -69.30874 | 32959 ft | 518 kts | 93° |
| 2026-04-25 13:01 | 29.59744 | -69.22651 | 32961 ft | 519 kts | 94° |
| 2026-04-25 13:02 | 29.59493 | -69.14366 | 32963 ft | 520 kts | 94° |
| 2026-04-25 13:02 | 29.59237 | -69.06094 | 32963 ft | 521 kts | 94° |
| 2026-04-25 13:03 | 29.58975 | -68.97779 | 32964 ft | 521 kts | 94° |
| 2026-04-25 13:03 | 29.58708 | -68.89494 | 32964 ft | 522 kts | 94° |
| 2026-04-25 13:04 | 29.58434 | -68.81142 | 32964 ft | 523 kts | 94° |
| 2026-04-25 13:04 | 29.58155 | -68.72803 | 32965 ft | 524 kts | 94° |
| 2026-04-25 13:05 | 29.57871 | -68.64478 | 32965 ft | 525 kts | 95° |
| 2026-04-25 13:05 | 29.57579 | -68.56065 | 32965 ft | 526 kts | 95° |
| 2026-04-25 13:06 | 29.57284 | -68.47693 | 32966 ft | 526 kts | 95° |
| 2026-04-25 13:06 | 29.56982 | -68.39304 | 32966 ft | 527 kts | 95° |
| 2026-04-25 13:07 | 29.56676 | -68.30956 | 32964 ft | 528 kts | 95° |
| 2026-04-25 13:07 | 29.56363 | -68.22559 | 32966 ft | 528 kts | 95° |
| 2026-04-25 13:08 | 29.56044 | -68.14140 | 32967 ft | 528 kts | 95° |
| 2026-04-25 13:08 | 29.55720 | -68.05722 | 32968 ft | 528 kts | 95° |
| 2026-04-25 13:09 | 29.55392 | -67.97316 | 32969 ft | 528 kts | 95° |
| 2026-04-25 13:09 | 29.55058 | -67.88905 | 32969 ft | 528 kts | 95° |
| 2026-04-25 13:10 | 29.54721 | -67.80514 | 32966 ft | 529 kts | 95° |
| 2026-04-25 13:10 | 29.54377 | -67.72090 | 32965 ft | 530 kts | 96° |
| 2026-04-25 13:11 | 29.54024 | -67.63612 | 32966 ft | 531 kts | 96° |
| 2026-04-25 13:11 | 29.53666 | -67.55183 | 32966 ft | 532 kts | 96° |
| 2026-04-25 13:12 | 29.53303 | -67.46701 | 32965 ft | 532 kts | 96° |
| 2026-04-25 13:12 | 29.52996 | -67.39652 | 32965 ft | 533 kts | 96° |
| 2026-04-25 13:13 | 29.52560 | -67.29782 | 32960 ft | 534 kts | 97° |
| 2026-04-25 13:13 | 29.52177 | -67.21259 | 32956 ft | 535 kts | 97° |
| 2026-04-25 13:14 | 29.51791 | -67.12762 | 32953 ft | 536 kts | 97° |
| 2026-04-25 13:14 | 29.51397 | -67.04224 | 32953 ft | 537 kts | 97° |
| 2026-04-25 13:15 | 29.51000 | -66.95705 | 32953 ft | 539 kts | 98° |
| 2026-04-25 13:15 | 29.50592 | -66.87085 | 32954 ft | 540 kts | 98° |
| 2026-04-25 13:16 | 29.50180 | -66.78529 | 32955 ft | 542 kts | 98° |
| 2026-04-25 13:16 | 29.49757 | -66.69868 | 32956 ft | 543 kts | 98° |
| 2026-04-25 13:17 | 29.49334 | -66.61277 | 32957 ft | 544 kts | 98° |
| 2026-04-25 13:17 | 29.48901 | -66.52625 | 32957 ft | 546 kts | 98° |
| 2026-04-25 13:18 | 29.48460 | -66.43923 | 32958 ft | 547 kts | 98° |
| 2026-04-25 13:18 | 29.48014 | -66.35236 | 32959 ft | 549 kts | 98° |
| 2026-04-25 13:19 | 29.47559 | -66.26494 | 32958 ft | 549 kts | 99° |
| 2026-04-25 13:19 | 29.47179 | -66.19260 | 32960 ft | 549 kts | 99° |
| 2026-04-25 13:20 | 29.46636 | -66.09066 | 32961 ft | 550 kts | 99° |
| 2026-04-25 13:20 | 29.46164 | -66.00311 | 32961 ft | 550 kts | 99° |
| 2026-04-25 13:21 | 29.45689 | -65.91599 | 32962 ft | 551 kts | 99° |
| 2026-04-25 13:21 | 29.45207 | -65.82840 | 32962 ft | 551 kts | 99° |
| 2026-04-25 13:22 | 29.44718 | -65.74085 | 32960 ft | 552 kts | 99° |
| 2026-04-25 13:23 | 29.43971 | -65.60936 | 32962 ft | 554 kts | 99° |
| 2026-04-25 13:23 | 29.43463 | -65.52120 | 32963 ft | 554 kts | 99° |
| 2026-04-25 13:24 | 29.42952 | -65.43339 | 32963 ft | 555 kts | 99° |
| 2026-04-25 13:24 | 29.42434 | -65.34532 | 32963 ft | 555 kts | 99° |
| 2026-04-25 13:25 | 29.41914 | -65.25780 | 32962 ft | 555 kts | 100° |
| 2026-04-25 13:25 | 29.41382 | -65.16946 | 32963 ft | 555 kts | 100° |
| 2026-04-25 13:26 | 29.40848 | -65.08175 | 32964 ft | 555 kts | 99° |
| 2026-04-25 13:26 | 29.40305 | -64.99359 | 32965 ft | 555 kts | 99° |
| 2026-04-25 13:27 | 29.39755 | -64.90528 | 32965 ft | 556 kts | 99° |
| 2026-04-25 13:27 | 29.39201 | -64.81732 | 32965 ft | 557 kts | 99° |
| 2026-04-25 13:28 | 29.38637 | -64.72848 | 32965 ft | 558 kts | 99° |
| 2026-04-25 13:28 | 29.38070 | -64.64005 | 32965 ft | 559 kts | 99° |
| 2026-04-25 13:29 | 29.37495 | -64.55127 | 32965 ft | 560 kts | 99° |
| 2026-04-25 13:29 | 29.36915 | -64.46281 | 32963 ft | 560 kts | 99° |
| 2026-04-25 13:30 | 29.36029 | -64.32931 | 32957 ft | 562 kts | 99° |
| 2026-04-25 13:31 | 29.35133 | -64.19573 | 32959 ft | 563 kts | 99° |
| 2026-04-25 13:31 | 29.34526 | -64.10675 | 32959 ft | 563 kts | 99° |
| 2026-04-25 13:32 | 29.33909 | -64.01714 | 32960 ft | 564 kts | 99° |
| 2026-04-25 13:32 | 29.33292 | -63.92825 | 32960 ft | 564 kts | 99° |
| 2026-04-25 13:33 | 29.32665 | -63.83890 | 32961 ft | 564 kts | 99° |
| 2026-04-25 13:33 | 29.32026 | -63.74903 | 32961 ft | 566 kts | 99° |
| 2026-04-25 13:34 | 29.31387 | -63.65971 | 32959 ft | 566 kts | 99° |
| 2026-04-25 13:34 | 29.30741 | -63.57008 | 32959 ft | 567 kts | 99° |
| 2026-04-25 13:35 | 29.30091 | -63.48071 | 32959 ft | 566 kts | 99° |
| 2026-04-25 13:35 | 29.29430 | -63.39087 | 32962 ft | 566 kts | 99° |
| 2026-04-25 13:36 | 29.28764 | -63.30120 | 32961 ft | 565 kts | 99° |
| 2026-04-25 13:36 | 29.28092 | -63.21154 | 32965 ft | 565 kts | 99° |
| 2026-04-25 13:37 | 29.27415 | -63.12205 | 32965 ft | 565 kts | 99° |
| 2026-04-25 13:37 | 29.26736 | -63.03322 | 32965 ft | 565 kts | 99° |
| 2026-04-25 13:38 | 29.26048 | -62.94384 | 32965 ft | 565 kts | 99° |
| 2026-04-25 13:38 | 29.25351 | -62.85417 | 32965 ft | 565 kts | 99° |
| 2026-04-25 13:39 | 29.24652 | -62.76500 | 32965 ft | 565 kts | 99° |
| 2026-04-25 13:39 | 29.23944 | -62.67536 | 32964 ft | 566 kts | 99° |
| 2026-04-25 13:40 | 29.23233 | -62.58619 | 32964 ft | 566 kts | 99° |
| 2026-04-25 13:40 | 29.22514 | -62.49652 | 32964 ft | 566 kts | 99° |
| 2026-04-25 13:41 | 29.21792 | -62.40739 | 32964 ft | 566 kts | 99° |
| 2026-04-25 13:41 | 29.21060 | -62.31787 | 32960 ft | 567 kts | 99° |
| 2026-04-25 13:42 | 29.20320 | -62.22803 | 32963 ft | 567 kts | 99° |
| 2026-04-25 13:42 | 29.19578 | -62.13879 | 32963 ft | 567 kts | 99° |
| 2026-04-25 13:43 | 29.18826 | -62.04921 | 32964 ft | 567 kts | 99° |
| 2026-04-25 13:43 | 29.18069 | -61.95970 | 32964 ft | 568 kts | 99° |
| 2026-04-25 13:44 | 29.17305 | -61.86991 | 32961 ft | 568 kts | 99° |
| 2026-04-25 13:44 | 29.16532 | -61.77981 | 32959 ft | 569 kts | 99° |
| 2026-04-25 13:45 | 29.15756 | -61.69006 | 32961 ft | 569 kts | 99° |
| 2026-04-25 13:45 | 29.14976 | -61.60052 | 32962 ft | 569 kts | 99° |
| 2026-04-25 13:46 | 29.14189 | -61.51082 | 32962 ft | 569 kts | 99° |
| 2026-04-25 13:46 | 29.13393 | -61.42085 | 32961 ft | 569 kts | 99° |
| 2026-04-25 13:47 | 29.12593 | -61.33121 | 32957 ft | 569 kts | 100° |
| 2026-04-25 13:47 | 29.11786 | -61.24134 | 32959 ft | 568 kts | 100° |
| 2026-04-25 13:48 | 29.10974 | -61.15169 | 32961 ft | 568 kts | 100° |
| 2026-04-25 13:48 | 29.10155 | -61.06186 | 32960 ft | 569 kts | 100° |
| 2026-04-25 13:49 | 29.09332 | -60.97239 | 32959 ft | 568 kts | 100° |
| 2026-04-25 13:49 | 29.08502 | -60.88284 | 32958 ft | 568 kts | 99° |
| 2026-04-25 13:50 | 29.07667 | -60.79332 | 32958 ft | 568 kts | 99° |
| 2026-04-25 13:50 | 29.06822 | -60.70347 | 32958 ft | 568 kts | 99° |
| 2026-04-25 13:51 | 29.05976 | -60.61411 | 32957 ft | 568 kts | 99° |
| 2026-04-25 13:51 | 29.05119 | -60.52435 | 32957 ft | 569 kts | 99° |
| 2026-04-25 13:52 | 29.04258 | -60.43462 | 32957 ft | 569 kts | 99° |
| 2026-04-25 13:52 | 29.03392 | -60.34481 | 32956 ft | 569 kts | 100° |
| 2026-04-25 13:53 | 29.02523 | -60.25542 | 32955 ft | 569 kts | 100° |
| 2026-04-25 13:53 | 29.01643 | -60.16569 | 32956 ft | 569 kts | 100° |
| 2026-04-25 13:54 | 29.00757 | -60.07604 | 32957 ft | 569 kts | 100° |
| 2026-04-25 13:54 | 29.00056 | -59.98644 | 32956 ft | 571 kts | 95° |
| 2026-04-25 13:55 | 29.00048 | -59.89565 | 32950 ft | 573 kts | 91° |
| 2026-04-25 13:55 | 29.00178 | -59.80492 | 32942 ft | 574 kts | 91° |
| 2026-04-25 13:56 | 29.00289 | -59.71388 | 32945 ft | 574 kts | 91° |
| 2026-04-25 13:56 | 29.00376 | -59.62313 | 32948 ft | 574 kts | 91° |
| 2026-04-25 13:57 | 29.00449 | -59.53225 | 32947 ft | 574 kts | 91° |
| 2026-04-25 13:57 | 29.00515 | -59.44140 | 32946 ft | 574 kts | 91° |
| 2026-04-25 13:58 | 29.00575 | -59.35015 | 32945 ft | 574 kts | 91° |
| 2026-04-25 13:58 | 29.00630 | -59.25928 | 32941 ft | 574 kts | 92° |
| 2026-04-25 13:59 | 29.00678 | -59.16872 | 32940 ft | 574 kts | 92° |
| 2026-04-25 13:59 | 29.00720 | -59.07750 | 32939 ft | 574 kts | 92° |
| 2026-04-25 14:00 | 29.00755 | -58.98662 | 32939 ft | 574 kts | 92° |
| 2026-04-25 14:00 | 29.00785 | -58.89581 | 32938 ft | 575 kts | 92° |
| 2026-04-25 14:01 | 29.00805 | -58.80459 | 32938 ft | 575 kts | 92° |
| 2026-04-25 14:01 | 29.00822 | -58.71377 | 32937 ft | 575 kts | 92° |
| 2026-04-25 14:02 | 29.00835 | -58.62258 | 32937 ft | 575 kts | 92° |
| 2026-04-25 14:02 | 29.00841 | -58.53180 | 32936 ft | 575 kts | 92° |
| 2026-04-25 14:03 | 29.00840 | -58.44042 | 32936 ft | 575 kts | 92° |
| 2026-04-25 14:03 | 29.00833 | -58.34969 | 32935 ft | 575 kts | 92° |
| 2026-04-25 14:04 | 29.00821 | -58.25830 | 32933 ft | 575 kts | 92° |
| 2026-04-25 14:04 | 29.00801 | -58.16730 | 32934 ft | 575 kts | 92° |
| 2026-04-25 14:05 | 29.00773 | -58.07664 | 32935 ft | 575 kts | 92° |
| 2026-04-25 14:05 | 29.00741 | -57.98546 | 32935 ft | 575 kts | 92° |
| 2026-04-25 14:06 | 29.00703 | -57.89478 | 32930 ft | 575 kts | 92° |
| 2026-04-25 14:06 | 29.00658 | -57.80328 | 32926 ft | 575 kts | 92° |
| 2026-04-25 14:07 | 29.00608 | -57.71257 | 32932 ft | 575 kts | 92° |
| 2026-04-25 14:07 | 29.00554 | -57.62145 | 32935 ft | 575 kts | 92° |
| 2026-04-25 14:08 | 29.00492 | -57.53001 | 32936 ft | 575 kts | 92° |
| 2026-04-25 14:08 | 29.00424 | -57.43916 | 32941 ft | 575 kts | 92° |
| 2026-04-25 14:09 | 29.00349 | -57.34810 | 32947 ft | 575 kts | 93° |
| 2026-04-25 14:09 | 29.00268 | -57.25666 | 32947 ft | 575 kts | 93° |
| 2026-04-25 14:10 | 29.00181 | -57.16609 | 32947 ft | 575 kts | 93° |
| 2026-04-25 14:10 | 29.00086 | -57.07458 | 32947 ft | 575 kts | 93° |
| 2026-04-25 14:11 | 29.00036 | -56.98388 | 32945 ft | 576 kts | 91° |
| 2026-04-25 14:11 | 29.00253 | -56.89223 | 32945 ft | 577 kts | 90° |
| 2026-04-25 14:12 | 29.00500 | -56.80121 | 32944 ft | 577 kts | 90° |
| 2026-04-25 14:12 | 29.00732 | -56.70976 | 32944 ft | 577 kts | 90° |
| 2026-04-25 14:13 | 29.00950 | -56.61844 | 32943 ft | 577 kts | 90° |
| 2026-04-25 14:13 | 29.01158 | -56.52687 | 32943 ft | 577 kts | 90° |
| 2026-04-25 14:14 | 29.01359 | -56.43554 | 32942 ft | 577 kts | 90° |
| 2026-04-25 14:14 | 29.01554 | -56.34438 | 32941 ft | 577 kts | 90° |
| 2026-04-25 14:15 | 29.01745 | -56.25289 | 32939 ft | 577 kts | 90° |
| 2026-04-25 14:15 | 29.01927 | -56.16096 | 32939 ft | 578 kts | 90° |
| 2026-04-25 14:16 | 29.02103 | -56.06937 | 32939 ft | 579 kts | 90° |
| 2026-04-25 14:16 | 29.02275 | -55.97775 | 32935 ft | 579 kts | 90° |
| 2026-04-25 14:17 | 29.02439 | -55.88649 | 32926 ft | 579 kts | 90° |
| 2026-04-25 14:17 | 29.02598 | -55.79476 | 32922 ft | 579 kts | 90° |
| 2026-04-25 14:18 | 29.02750 | -55.70318 | 32924 ft | 580 kts | 90° |
| 2026-04-25 14:18 | 29.02898 | -55.61079 | 32926 ft | 580 kts | 90° |
| 2026-04-25 14:19 | 29.03039 | -55.51928 | 32925 ft | 580 kts | 90° |
| 2026-04-25 14:19 | 29.03173 | -55.42700 | 32924 ft | 580 kts | 90° |
| 2026-04-25 14:20 | 29.03300 | -55.33512 | 32920 ft | 580 kts | 91° |
| 2026-04-25 14:20 | 29.03421 | -55.24336 | 32920 ft | 580 kts | 91° |
| 2026-04-25 14:21 | 29.03536 | -55.15185 | 32920 ft | 580 kts | 91° |
| 2026-04-25 14:21 | 29.03645 | -55.05987 | 32919 ft | 580 kts | 91° |
| 2026-04-25 14:22 | 29.03747 | -54.96828 | 32918 ft | 580 kts | 91° |
| 2026-04-25 14:22 | 29.03843 | -54.87638 | 32916 ft | 580 kts | 90° |
| 2026-04-25 14:23 | 29.03934 | -54.78438 | 32914 ft | 580 kts | 90° |
| 2026-04-25 14:23 | 29.04019 | -54.69259 | 32913 ft | 580 kts | 90° |
| 2026-04-25 14:24 | 29.04097 | -54.60059 | 32912 ft | 580 kts | 90° |
| 2026-04-25 14:24 | 29.04170 | -54.50821 | 32911 ft | 581 kts | 90° |
| 2026-04-25 14:25 | 29.04235 | -54.41635 | 32911 ft | 581 kts | 90° |
| 2026-04-25 14:25 | 29.04295 | -54.32379 | 32906 ft | 581 kts | 91° |
| 2026-04-25 14:26 | 29.04347 | -54.23230 | 32907 ft | 581 kts | 91° |
| 2026-04-25 14:26 | 29.04393 | -54.13971 | 32908 ft | 581 kts | 91° |
| 2026-04-25 14:27 | 29.04432 | -54.04771 | 32907 ft | 581 kts | 91° |
| 2026-04-25 14:27 | 29.04466 | -53.95565 | 32907 ft | 581 kts | 91° |
| 2026-04-25 14:28 | 29.04494 | -53.86379 | 32904 ft | 582 kts | 91° |
| 2026-04-25 14:28 | 29.04514 | -53.77120 | 32902 ft | 582 kts | 91° |
| 2026-04-25 14:29 | 29.04528 | -53.67896 | 32903 ft | 583 kts | 91° |
| 2026-04-25 14:29 | 29.04537 | -53.58655 | 32903 ft | 583 kts | 91° |
| 2026-04-25 14:30 | 29.04540 | -53.49448 | 32902 ft | 583 kts | 91° |
| 2026-04-25 14:30 | 29.04531 | -53.35627 | 32901 ft | 583 kts | 91° |
| 2026-04-25 14:31 | 29.04519 | -53.26361 | 32897 ft | 583 kts | 91° |
| 2026-04-25 14:31 | 29.04500 | -53.17126 | 32898 ft | 583 kts | 91° |
| 2026-04-25 14:32 | 29.04473 | -53.07847 | 32898 ft | 583 kts | 91° |
| 2026-04-25 14:32 | 29.04441 | -52.98676 | 32897 ft | 582 kts | 91° |
| 2026-04-25 14:33 | 29.04403 | -52.89423 | 32896 ft | 582 kts | 91° |
| 2026-04-25 14:33 | 29.04359 | -52.80203 | 32895 ft | 582 kts | 91° |
| 2026-04-25 14:34 | 29.04308 | -52.70980 | 32894 ft | 582 kts | 91° |
| 2026-04-25 14:34 | 29.04250 | -52.61780 | 32891 ft | 582 kts | 91° |
| 2026-04-25 14:35 | 29.04187 | -52.52549 | 32920 ft | 582 kts | 91° |
| 2026-04-25 14:35 | 29.04118 | -52.43321 | 32972 ft | 582 kts | 91° |
| 2026-04-25 14:36 | 29.04043 | -52.34094 | 33004 ft | 582 kts | 91° |
| 2026-04-25 14:36 | 29.03960 | -52.24803 | 33012 ft | 582 kts | 91° |
| 2026-04-25 14:37 | 29.03872 | -52.15624 | 33014 ft | 582 kts | 91° |
| 2026-04-25 14:37 | 29.03777 | -52.06410 | 33014 ft | 582 kts | 91° |
| 2026-04-25 14:38 | 29.03675 | -51.97147 | 33012 ft | 582 kts | 91° |
| 2026-04-25 14:38 | 29.03568 | -51.87948 | 33012 ft | 583 kts | 91° |
| 2026-04-25 14:39 | 29.03453 | -51.78687 | 33012 ft | 583 kts | 91° |
| 2026-04-25 14:39 | 29.03332 | -51.69477 | 33013 ft | 582 kts | 91° |
| 2026-04-25 14:40 | 29.03206 | -51.60261 | 33013 ft | 582 kts | 91° |
| 2026-04-25 14:40 | 29.03074 | -51.51046 | 33012 ft | 582 kts | 91° |
| 2026-04-25 14:41 | 29.02935 | -51.41857 | 33012 ft | 582 kts | 91° |
| 2026-04-25 14:41 | 29.02792 | -51.32638 | 33008 ft | 582 kts | 91° |
| 2026-04-25 14:42 | 29.02667 | -51.24908 | 33010 ft | 582 kts | 91° |
| 2026-04-25 14:42 | 29.02484 | -51.14181 | 33012 ft | 581 kts | 91° |
| 2026-04-25 14:43 | 29.02320 | -51.04979 | 33012 ft | 581 kts | 91° |
| 2026-04-25 14:43 | 29.02149 | -50.95759 | 33013 ft | 581 kts | 91° |
| 2026-04-25 14:44 | 29.01972 | -50.86547 | 33013 ft | 581 kts | 91° |
| 2026-04-25 14:44 | 29.01789 | -50.77313 | 33013 ft | 581 kts | 91° |
| 2026-04-25 14:45 | 29.01600 | -50.68119 | 33013 ft | 581 kts | 91° |
| 2026-04-25 14:45 | 29.01404 | -50.58918 | 33013 ft | 581 kts | 91° |
| 2026-04-25 14:46 | 29.01203 | -50.49753 | 33014 ft | 581 kts | 91° |
| 2026-04-25 14:46 | 29.00995 | -50.40540 | 33014 ft | 581 kts | 91° |
| 2026-04-25 14:47 | 29.00817 | -50.32865 | 33011 ft | 581 kts | 92° |
| 2026-04-25 14:47 | 29.00559 | -50.22106 | 33013 ft | 580 kts | 92° |
| 2026-04-25 14:48 | 29.00331 | -50.12888 | 33014 ft | 580 kts | 92° |
| 2026-04-25 14:48 | 29.00097 | -50.03668 | 33013 ft | 580 kts | 92° |
| 2026-04-25 14:49 | 29.00067 | -49.94510 | 33013 ft | 580 kts | 89° |
| 2026-04-25 14:49 | 29.00242 | -49.85325 | 33012 ft | 580 kts | 88° |
| 2026-04-25 14:50 | 29.00417 | -49.76125 | 33013 ft | 580 kts | 88° |
| 2026-04-25 14:50 | 29.00575 | -49.66931 | 33013 ft | 581 kts | 88° |
| 2026-04-25 14:51 | 29.00720 | -49.57742 | 33012 ft | 581 kts | 88° |
| 2026-04-25 14:51 | 29.00860 | -49.48508 | 33013 ft | 582 kts | 88° |
| 2026-04-25 14:52 | 29.00991 | -49.39267 | 33013 ft | 582 kts | 88° |
| 2026-04-25 14:52 | 29.01095 | -49.31638 | 33009 ft | 582 kts | 89° |
| 2026-04-25 14:53 | 29.01236 | -49.20818 | 33012 ft | 582 kts | 89° |
| 2026-04-25 14:53 | 29.01349 | -49.11633 | 33013 ft | 582 kts | 89° |
| 2026-04-25 14:54 | 29.01456 | -49.02377 | 33014 ft | 582 kts | 89° |
| 2026-04-25 14:54 | 29.01556 | -48.93200 | 33015 ft | 582 kts | 89° |
| 2026-04-25 14:55 | 29.01651 | -48.83970 | 33015 ft | 582 kts | 89° |
| 2026-04-25 14:55 | 29.01741 | -48.74670 | 33015 ft | 583 kts | 88° |
| 2026-04-25 14:56 | 29.01822 | -48.65449 | 33015 ft | 583 kts | 88° |
| 2026-04-25 14:56 | 29.01897 | -48.56215 | 33015 ft | 583 kts | 88° |
| 2026-04-25 14:57 | 29.01967 | -48.46996 | 33016 ft | 583 kts | 88° |
| 2026-04-25 14:57 | 29.02030 | -48.37759 | 33016 ft | 583 kts | 88° |
| 2026-04-25 14:58 | 29.02088 | -48.28518 | 33013 ft | 584 kts | 89° |
| 2026-04-25 14:58 | 29.02138 | -48.19255 | 33015 ft | 583 kts | 89° |
| 2026-04-25 14:59 | 29.02181 | -48.10019 | 33016 ft | 583 kts | 89° |
| 2026-04-25 14:59 | 29.02218 | -48.00783 | 33017 ft | 583 kts | 89° |
| 2026-04-25 15:00 | 29.02250 | -47.91548 | 33017 ft | 583 kts | 89° |
| 2026-04-25 15:00 | 29.02275 | -47.82304 | 33019 ft | 583 kts | 89° |
| 2026-04-25 15:01 | 29.02292 | -47.73049 | 33021 ft | 584 kts | 89° |
| 2026-04-25 15:01 | 29.02304 | -47.63727 | 33021 ft | 584 kts | 88° |
| 2026-04-25 15:02 | 29.02310 | -47.54490 | 33019 ft | 584 kts | 88° |
| 2026-04-25 15:02 | 29.02310 | -47.45251 | 33019 ft | 584 kts | 88° |
| 2026-04-25 15:03 | 29.02304 | -47.36029 | 33019 ft | 583 kts | 88° |
| 2026-04-25 15:03 | 29.02293 | -47.26750 | 33017 ft | 583 kts | 89° |
| 2026-04-25 15:04 | 29.02274 | -47.17485 | 33019 ft | 583 kts | 89° |
| 2026-04-25 15:04 | 29.02249 | -47.08284 | 33020 ft | 583 kts | 89° |
| 2026-04-25 15:05 | 29.02217 | -46.99038 | 33021 ft | 583 kts | 89° |
| 2026-04-25 15:06 | 29.02154 | -46.85192 | 33021 ft | 582 kts | 89° |
| 2026-04-25 15:06 | 29.02107 | -46.76008 | 33022 ft | 582 kts | 88° |
| 2026-04-25 15:07 | 29.02054 | -46.66756 | 33022 ft | 582 kts | 88° |
| 2026-04-25 15:07 | 29.01995 | -46.57573 | 33022 ft | 581 kts | 88° |
| 2026-04-25 15:08 | 29.01931 | -46.48383 | 33009 ft | 580 kts | 89° |
| 2026-04-25 15:08 | 29.01861 | -46.39152 | 33004 ft | 578 kts | 89° |
| 2026-04-25 15:09 | 29.01783 | -46.30063 | 33014 ft | 577 kts | 90° |
| 2026-04-25 15:09 | 29.01647 | -46.16329 | 33023 ft | 576 kts | 90° |
| 2026-04-25 15:10 | 29.01553 | -46.07196 | 33023 ft | 576 kts | 90° |
| 2026-04-25 15:11 | 29.01402 | -45.93569 | 33022 ft | 576 kts | 90° |
| 2026-04-25 15:11 | 29.01293 | -45.84426 | 33022 ft | 576 kts | 90° |
| 2026-04-25 15:12 | 29.01117 | -45.70735 | 33023 ft | 576 kts | 90° |
| 2026-04-25 15:12 | 29.01014 | -45.63154 | 33024 ft | 575 kts | 90° |
| 2026-04-25 15:13 | 29.00797 | -45.47963 | 33023 ft | 575 kts | 90° |
| 2026-04-25 15:14 | 29.00659 | -45.38888 | 33024 ft | 576 kts | 90° |
| 2026-04-25 15:14 | 29.00514 | -45.29738 | 33021 ft | 576 kts | 90° |
| 2026-04-25 15:15 | 29.00363 | -45.20630 | 33023 ft | 576 kts | 90° |
| 2026-04-25 15:15 | 29.00203 | -45.11517 | 33024 ft | 576 kts | 91° |
| 2026-04-25 15:16 | 28.99523 | -45.02405 | 33025 ft | 577 kts | 99° |
| 2026-04-25 15:16 | 28.96595 | -44.89130 | 33025 ft | 575 kts | 111° |
| 2026-04-25 15:17 | 28.92433 | -44.76375 | 33025 ft | 575 kts | 112° |
| 2026-04-25 15:18 | 28.89638 | -44.67810 | 33024 ft | 575 kts | 112° |
| 2026-04-25 15:18 | 28.85506 | -44.55038 | 33024 ft | 575 kts | 112° |
| 2026-04-25 15:19 | 28.83188 | -44.47879 | 33024 ft | 575 kts | 112° |
| 2026-04-25 15:19 | 28.79962 | -44.37937 | 33023 ft | 575 kts | 112° |
| 2026-04-25 15:20 | 28.77202 | -44.29450 | 32988 ft | 575 kts | 112° |
| 2026-04-25 15:20 | 28.74418 | -44.20914 | 32939 ft | 574 kts | 112° |
| 2026-04-25 15:21 | 28.71638 | -44.12414 | 32906 ft | 575 kts | 112° |
| 2026-04-25 15:21 | 28.68807 | -44.03912 | 32886 ft | 574 kts | 115° |
| 2026-04-25 15:22 | 28.65143 | -43.95869 | 32883 ft | 572 kts | 121° |
| 2026-04-25 15:22 | 28.61768 | -43.87688 | 32885 ft | 574 kts | 113° |
| 2026-04-25 15:23 | 28.58917 | -43.79195 | 32892 ft | 574 kts | 111° |
| 2026-04-25 15:23 | 28.56143 | -43.70724 | 32893 ft | 574 kts | 111° |
| 2026-04-25 15:24 | 28.53345 | -43.62233 | 32893 ft | 575 kts | 112° |
| 2026-04-25 15:24 | 28.50993 | -43.55155 | 32894 ft | 575 kts | 112° |
| 2026-04-25 15:25 | 28.47705 | -43.45300 | 32895 ft | 575 kts | 112° |
| 2026-04-25 15:25 | 28.44860 | -43.36804 | 32897 ft | 575 kts | 111° |
| 2026-04-25 15:26 | 28.42028 | -43.28352 | 32896 ft | 575 kts | 112° |
| 2026-04-25 15:26 | 28.39185 | -43.19889 | 32899 ft | 575 kts | 112° |
| 2026-04-25 15:27 | 28.36329 | -43.11412 | 32901 ft | 575 kts | 112° |
| 2026-04-25 15:28 | 28.32041 | -42.98720 | 32902 ft | 576 kts | 112° |
| 2026-04-25 15:28 | 28.29173 | -42.90255 | 32903 ft | 576 kts | 112° |
| 2026-04-25 15:29 | 28.26306 | -42.81814 | 32904 ft | 576 kts | 112° |
| 2026-04-25 15:29 | 28.23435 | -42.73379 | 32905 ft | 576 kts | 111° |
| 2026-04-25 15:30 | 28.20550 | -42.64920 | 32905 ft | 576 kts | 111° |
| 2026-04-25 15:30 | 28.17652 | -42.56447 | 32906 ft | 577 kts | 111° |
| 2026-04-25 15:31 | 28.14756 | -42.47995 | 32906 ft | 577 kts | 111° |
| 2026-04-25 15:31 | 28.11861 | -42.39568 | 32907 ft | 576 kts | 111° |
| 2026-04-25 15:32 | 28.08948 | -42.31102 | 32903 ft | 576 kts | 111° |
| 2026-04-25 15:32 | 28.06040 | -42.22670 | 32906 ft | 577 kts | 111° |
| 2026-04-25 15:33 | 28.01671 | -42.10031 | 32908 ft | 577 kts | 111° |
| 2026-04-25 15:33 | 27.98673 | -42.01624 | 32909 ft | 577 kts | 114° |
| 2026-04-25 15:34 | 27.94991 | -41.93551 | 32909 ft | 576 kts | 120° |
| 2026-04-25 15:34 | 27.91751 | -41.87001 | 32909 ft | 576 kts | 120° |
| 2026-04-25 15:35 | 27.85216 | -41.73785 | 32909 ft | 576 kts | 120° |
| 2026-04-25 15:36 | 27.79385 | -41.61946 | 32909 ft | 576 kts | 120° |
| 2026-04-25 15:36 | 27.75482 | -41.54033 | 32909 ft | 576 kts | 120° |
| 2026-04-25 15:37 | 27.71573 | -41.46124 | 32909 ft | 577 kts | 120° |
| 2026-04-25 15:37 | 27.67678 | -41.38258 | 32910 ft | 577 kts | 120° |
| 2026-04-25 15:38 | 27.63786 | -41.30412 | 32908 ft | 577 kts | 120° |
| 2026-04-25 15:38 | 27.59845 | -41.22478 | 32911 ft | 577 kts | 120° |
| 2026-04-25 15:39 | 27.55927 | -41.14606 | 32913 ft | 577 kts | 120° |
| 2026-04-25 15:39 | 27.52014 | -41.06762 | 32915 ft | 577 kts | 120° |
| 2026-04-25 15:40 | 27.48749 | -41.00228 | 32916 ft | 577 kts | 120° |
| 2026-04-25 15:40 | 27.44156 | -40.91052 | 32917 ft | 577 kts | 120° |
| 2026-04-25 15:41 | 27.40238 | -40.83240 | 32918 ft | 577 kts | 120° |
| 2026-04-25 15:41 | 27.36266 | -40.75336 | 32919 ft | 578 kts | 120° |
| 2026-04-25 15:42 | 27.32325 | -40.67504 | 32920 ft | 578 kts | 120° |
| 2026-04-25 15:42 | 27.28365 | -40.59650 | 32921 ft | 578 kts | 120° |
| 2026-04-25 15:43 | 27.24411 | -40.51823 | 32921 ft | 578 kts | 120° |
| 2026-04-25 15:43 | 27.20447 | -40.43993 | 32922 ft | 578 kts | 120° |
| 2026-04-25 15:44 | 27.16471 | -40.36147 | 32922 ft | 578 kts | 120° |
| 2026-04-25 15:44 | 27.12506 | -40.28338 | 32919 ft | 578 kts | 121° |
| 2026-04-25 15:45 | 27.08530 | -40.20522 | 32921 ft | 578 kts | 121° |
| 2026-04-25 15:45 | 27.05196 | -40.13977 | 32922 ft | 578 kts | 121° |
| 2026-04-25 15:46 | 27.00574 | -40.04915 | 32922 ft | 578 kts | 121° |
| 2026-04-25 15:46 | 26.96680 | -39.97035 | 32926 ft | 578 kts | 118° |
| 2026-04-25 15:47 | 26.92937 | -39.89050 | 32929 ft | 578 kts | 118° |
| 2026-04-25 15:47 | 26.89234 | -39.81125 | 32926 ft | 578 kts | 118° |
| 2026-04-25 15:48 | 26.85490 | -39.73138 | 32924 ft | 578 kts | 118° |
| 2026-04-25 15:48 | 26.81766 | -39.65219 | 32925 ft | 578 kts | 118° |
| 2026-04-25 15:49 | 26.78027 | -39.57288 | 32926 ft | 578 kts | 118° |
| 2026-04-25 15:49 | 26.74276 | -39.49351 | 32928 ft | 578 kts | 118° |
| 2026-04-25 15:50 | 26.70537 | -39.41450 | 32929 ft | 578 kts | 118° |
| 2026-04-25 15:50 | 26.66767 | -39.33498 | 32928 ft | 578 kts | 118° |
| 2026-04-25 15:51 | 26.63659 | -39.26951 | 32930 ft | 578 kts | 118° |
| 2026-04-25 15:51 | 26.59266 | -39.17716 | 32932 ft | 578 kts | 118° |
| 2026-04-25 15:52 | 26.55497 | -39.09810 | 32933 ft | 577 kts | 118° |
| 2026-04-25 15:52 | 26.51721 | -39.01904 | 32934 ft | 577 kts | 118° |
| 2026-04-25 15:53 | 26.47943 | -38.94007 | 32935 ft | 577 kts | 118° |
| 2026-04-25 15:53 | 26.44175 | -38.86144 | 32935 ft | 577 kts | 118° |
| 2026-04-25 15:54 | 26.40376 | -38.78230 | 32935 ft | 578 kts | 118° |
| 2026-04-25 15:54 | 26.36583 | -38.70344 | 32935 ft | 578 kts | 118° |
| 2026-04-25 15:55 | 26.32775 | -38.62442 | 32935 ft | 579 kts | 118° |
| 2026-04-25 15:55 | 26.28988 | -38.54599 | 32935 ft | 579 kts | 118° |
| 2026-04-25 15:56 | 26.25164 | -38.46689 | 32935 ft | 580 kts | 118° |
| 2026-04-25 15:56 | 26.21341 | -38.38796 | 32935 ft | 580 kts | 118° |
| 2026-04-25 15:57 | 26.17513 | -38.30907 | 32931 ft | 581 kts | 119° |
| 2026-04-25 15:57 | 26.13670 | -38.23003 | 32934 ft | 581 kts | 119° |
| 2026-04-25 15:58 | 26.09824 | -38.15107 | 32935 ft | 582 kts | 119° |
| 2026-04-25 15:58 | 26.05972 | -38.07212 | 32936 ft | 582 kts | 119° |
| 2026-04-25 15:59 | 26.02114 | -37.99321 | 32937 ft | 583 kts | 119° |
| 2026-04-25 15:59 | 25.98249 | -37.91426 | 32938 ft | 583 kts | 119° |
| 2026-04-25 16:00 | 25.95026 | -37.84855 | 32938 ft | 583 kts | 119° |
| 2026-04-25 16:00 | 25.90498 | -37.75640 | 32938 ft | 584 kts | 119° |
| 2026-04-25 16:01 | 25.86610 | -37.67739 | 32936 ft | 584 kts | 119° |
| 2026-04-25 16:01 | 25.82711 | -37.59833 | 32936 ft | 584 kts | 119° |
| 2026-04-25 16:02 | 25.78820 | -37.51953 | 32936 ft | 584 kts | 119° |
| 2026-04-25 16:02 | 25.74938 | -37.44109 | 32936 ft | 583 kts | 119° |
| 2026-04-25 16:03 | 25.71020 | -37.36206 | 32936 ft | 583 kts | 119° |
| 2026-04-25 16:03 | 25.67135 | -37.28380 | 32933 ft | 582 kts | 120° |
| 2026-04-25 16:04 | 25.63238 | -37.20545 | 32936 ft | 581 kts | 120° |
| 2026-04-25 16:04 | 25.59339 | -37.12720 | 32937 ft | 581 kts | 120° |
| 2026-04-25 16:05 | 25.55436 | -37.04900 | 32939 ft | 580 kts | 120° |
| 2026-04-25 16:06 | 25.49615 | -36.93265 | 32941 ft | 579 kts | 120° |
| 2026-04-25 16:06 | 25.45705 | -36.85466 | 32941 ft | 579 kts | 120° |
| 2026-04-25 16:07 | 25.41808 | -36.77705 | 32942 ft | 578 kts | 120° |
| 2026-04-25 16:07 | 25.37909 | -36.69949 | 32943 ft | 578 kts | 120° |
| 2026-04-25 16:08 | 25.33997 | -36.62187 | 32943 ft | 577 kts | 120° |
| 2026-04-25 16:08 | 25.30119 | -36.54504 | 32941 ft | 577 kts | 120° |
| 2026-04-25 16:09 | 25.26214 | -36.46780 | 32939 ft | 577 kts | 120° |
| 2026-04-25 16:09 | 25.22310 | -36.39065 | 32938 ft | 577 kts | 120° |
| 2026-04-25 16:10 | 25.19047 | -36.32624 | 32934 ft | 576 kts | 121° |
| 2026-04-25 16:10 | 25.14483 | -36.23638 | 32937 ft | 576 kts | 121° |
| 2026-04-25 16:11 | 25.10560 | -36.15930 | 32936 ft | 576 kts | 121° |
| 2026-04-25 16:11 | 25.06641 | -36.08240 | 32937 ft | 576 kts | 121° |
| 2026-04-25 16:12 | 25.02727 | -36.00571 | 32936 ft | 576 kts | 121° |
| 2026-04-25 16:12 | 24.98795 | -35.92879 | 32936 ft | 576 kts | 121° |
| 2026-04-25 16:13 | 24.94866 | -35.85207 | 32941 ft | 576 kts | 121° |
| 2026-04-25 16:13 | 24.90915 | -35.77505 | 32943 ft | 576 kts | 121° |
| 2026-04-25 16:14 | 24.86988 | -35.69864 | 32938 ft | 576 kts | 121° |
| 2026-04-25 16:14 | 24.83044 | -35.62204 | 32937 ft | 576 kts | 121° |
| 2026-04-25 16:15 | 24.79109 | -35.54571 | 32939 ft | 576 kts | 121° |
| 2026-04-25 16:15 | 24.75158 | -35.46919 | 32940 ft | 577 kts | 121° |
| 2026-04-25 16:16 | 24.71179 | -35.39227 | 32942 ft | 577 kts | 121° |
| 2026-04-25 16:16 | 24.67217 | -35.31591 | 32939 ft | 577 kts | 122° |
| 2026-04-25 16:17 | 24.63261 | -35.23973 | 32944 ft | 577 kts | 122° |
| 2026-04-25 16:17 | 24.59283 | -35.16320 | 32946 ft | 577 kts | 122° |
| 2026-04-25 16:18 | 24.55297 | -35.08665 | 32948 ft | 577 kts | 122° |
| 2026-04-25 16:18 | 24.51331 | -35.01058 | 32949 ft | 576 kts | 122° |
| 2026-04-25 16:19 | 24.47354 | -34.93445 | 32949 ft | 576 kts | 122° |
| 2026-04-25 16:19 | 24.43380 | -34.85851 | 32949 ft | 576 kts | 122° |
| 2026-04-25 16:20 | 24.37388 | -34.74415 | 32948 ft | 576 kts | 122° |
| 2026-04-25 16:21 | 24.31389 | -34.62996 | 32948 ft | 577 kts | 122° |
| 2026-04-25 16:21 | 24.27398 | -34.55416 | 32947 ft | 577 kts | 122° |
| 2026-04-25 16:22 | 24.23376 | -34.47786 | 32947 ft | 577 kts | 122° |
| 2026-04-25 16:22 | 24.19376 | -34.40209 | 32947 ft | 577 kts | 122° |
| 2026-04-25 16:23 | 24.15362 | -34.32617 | 32942 ft | 578 kts | 123° |
| 2026-04-25 16:23 | 24.11331 | -34.25006 | 32945 ft | 578 kts | 123° |
| 2026-04-25 16:24 | 24.07309 | -34.17418 | 32947 ft | 578 kts | 123° |
| 2026-04-25 16:24 | 24.03292 | -34.09847 | 32948 ft | 579 kts | 123° |
| 2026-04-25 16:25 | 23.99250 | -34.02245 | 32949 ft | 579 kts | 123° |
| 2026-04-25 16:25 | 23.95082 | -33.94740 | 32950 ft | 578 kts | 125° |
| 2026-04-25 16:26 | 23.90798 | -33.87358 | 32951 ft | 578 kts | 126° |
| 2026-04-25 16:26 | 23.86493 | -33.79922 | 32951 ft | 578 kts | 125° |
| 2026-04-25 16:27 | 23.82221 | -33.72510 | 32951 ft | 578 kts | 125° |
| 2026-04-25 16:27 | 23.77945 | -33.65084 | 32951 ft | 578 kts | 125° |
| 2026-04-25 16:28 | 23.73675 | -33.57679 | 32951 ft | 578 kts | 125° |
| 2026-04-25 16:28 | 23.69398 | -33.50273 | 32951 ft | 578 kts | 125° |
| 2026-04-25 16:29 | 23.65114 | -33.42865 | 32951 ft | 578 kts | 125° |
| 2026-04-25 16:29 | 23.60853 | -33.35506 | 32951 ft | 577 kts | 125° |
| 2026-04-25 16:30 | 23.56572 | -33.28125 | 32949 ft | 576 kts | 126° |
| 2026-04-25 16:30 | 23.52283 | -33.20742 | 32950 ft | 576 kts | 126° |
| 2026-04-25 16:31 | 23.48005 | -33.13389 | 32951 ft | 576 kts | 126° |
| 2026-04-25 16:31 | 23.43720 | -33.06034 | 32952 ft | 576 kts | 126° |
| 2026-04-25 16:32 | 23.39425 | -32.98672 | 32953 ft | 576 kts | 126° |
| 2026-04-25 16:32 | 23.35162 | -32.91376 | 32954 ft | 576 kts | 126° |
| 2026-04-25 16:33 | 23.30857 | -32.84019 | 32955 ft | 576 kts | 126° |
| 2026-04-25 16:33 | 23.26577 | -32.76714 | 32956 ft | 575 kts | 126° |
| 2026-04-25 16:34 | 23.22264 | -32.69365 | 32955 ft | 575 kts | 126° |
| 2026-04-25 16:34 | 23.17983 | -32.62079 | 32951 ft | 575 kts | 126° |
| 2026-04-25 16:35 | 23.13673 | -32.54754 | 32948 ft | 575 kts | 126° |
| 2026-04-25 16:35 | 23.09369 | -32.47449 | 32947 ft | 575 kts | 126° |
| 2026-04-25 16:36 | 23.05056 | -32.40142 | 32947 ft | 575 kts | 126° |
| 2026-04-25 16:36 | 23.00745 | -32.32848 | 32944 ft | 574 kts | 127° |
| 2026-04-25 16:37 | 22.96432 | -32.25560 | 32946 ft | 574 kts | 127° |
| 2026-04-25 16:37 | 22.92129 | -32.18301 | 32945 ft | 574 kts | 127° |
| 2026-04-25 16:38 | 22.87825 | -32.11048 | 32941 ft | 574 kts | 127° |
| 2026-04-25 16:38 | 22.83499 | -32.03771 | 32935 ft | 574 kts | 127° |
| 2026-04-25 16:39 | 22.79176 | -31.96505 | 32929 ft | 574 kts | 127° |
| 2026-04-25 16:39 | 22.74863 | -31.89270 | 32928 ft | 574 kts | 127° |
| 2026-04-25 16:40 | 22.70505 | -31.81972 | 32930 ft | 573 kts | 127° |
| 2026-04-25 16:40 | 22.66180 | -31.74736 | 32931 ft | 573 kts | 127° |
| 2026-04-25 16:41 | 22.61876 | -31.67546 | 32933 ft | 573 kts | 127° |
| 2026-04-25 16:41 | 22.55363 | -31.56683 | 32934 ft | 573 kts | 127° |
| 2026-04-25 16:42 | 22.51026 | -31.49463 | 32935 ft | 572 kts | 127° |
| 2026-04-25 16:42 | 22.46696 | -31.42260 | 32935 ft | 572 kts | 127° |
| 2026-04-25 16:43 | 22.42364 | -31.35061 | 32936 ft | 572 kts | 127° |
| 2026-04-25 16:43 | 22.38049 | -31.27902 | 32933 ft | 572 kts | 127° |
| 2026-04-25 16:44 | 22.33688 | -31.20681 | 32935 ft | 572 kts | 127° |
| 2026-04-25 16:44 | 22.29355 | -31.13515 | 32935 ft | 572 kts | 127° |
| 2026-04-25 16:45 | 22.25012 | -31.06342 | 32935 ft | 572 kts | 127° |
| 2026-04-25 16:45 | 22.20659 | -30.99161 | 32936 ft | 573 kts | 127° |
| 2026-04-25 16:46 | 22.16291 | -30.91968 | 32948 ft | 572 kts | 127° |
| 2026-04-25 16:46 | 22.12680 | -30.86027 | 32963 ft | 572 kts | 127° |
| 2026-04-25 16:47 | 22.07590 | -30.77664 | 32973 ft | 572 kts | 127° |
| 2026-04-25 16:47 | 22.03213 | -30.70482 | 32973 ft | 572 kts | 127° |
| 2026-04-25 16:48 | 21.98861 | -30.63350 | 32972 ft | 572 kts | 127° |
| 2026-04-25 16:48 | 21.94496 | -30.56207 | 32965 ft | 571 kts | 127° |
| 2026-04-25 16:49 | 21.90116 | -30.49051 | 32956 ft | 570 kts | 127° |
| 2026-04-25 16:49 | 21.85749 | -30.41923 | 32964 ft | 570 kts | 127° |
| 2026-04-25 16:50 | 21.81561 | -30.35094 | 32974 ft | 570 kts | 127° |
| 2026-04-25 16:50 | 21.77193 | -30.27982 | 32973 ft | 571 kts | 128° |
| 2026-04-25 16:51 | 21.72803 | -30.20845 | 32974 ft | 571 kts | 128° |
| 2026-04-25 16:51 | 21.69166 | -30.14938 | 32974 ft | 571 kts | 128° |
| 2026-04-25 16:52 | 21.64053 | -30.06642 | 32973 ft | 571 kts | 128° |
| 2026-04-25 16:52 | 21.59656 | -29.99518 | 32972 ft | 571 kts | 128° |
| 2026-04-25 16:53 | 21.53087 | -29.88890 | 32971 ft | 571 kts | 128° |
| 2026-04-25 16:54 | 21.48712 | -29.81818 | 32968 ft | 571 kts | 128° |
| 2026-04-25 16:54 | 21.44219 | -29.74853 | 32967 ft | 569 kts | 130° |
| 2026-04-25 16:55 | 21.39601 | -29.67934 | 33097 ft | 573 kts | 130° |
| 2026-04-25 16:55 | 21.37250 | -29.64406 | 33481 ft | 571 kts | 130° |
| 2026-04-25 16:55 | 21.34959 | -29.60955 | 33911 ft | 568 kts | 130° |
| 2026-04-25 16:55 | 21.32689 | -29.57530 | 34355 ft | 566 kts | 129° |
| 2026-04-25 16:56 | 21.30414 | -29.54095 | 34787 ft | 565 kts | 129° |
| 2026-04-25 16:56 | 21.28137 | -29.50657 | 35204 ft | 564 kts | 129° |
| 2026-04-25 16:56 | 21.25878 | -29.47248 | 35603 ft | 564 kts | 129° |
| 2026-04-25 16:56 | 21.23628 | -29.43853 | 36003 ft | 563 kts | 129° |
| 2026-04-25 16:57 | 21.21363 | -29.40437 | 36401 ft | 563 kts | 129° |
| 2026-04-25 16:57 | 21.19837 | -29.38138 | 36669 ft | 563 kts | 129° |
| 2026-04-25 16:57 | 21.16818 | -29.33591 | 37012 ft | 562 kts | 130° |
| 2026-04-25 16:58 | 21.12296 | -29.26787 | 37063 ft | 560 kts | 130° |
| 2026-04-25 16:58 | 21.07786 | -29.20009 | 37071 ft | 558 kts | 130° |
| 2026-04-25 16:59 | 21.03311 | -29.13294 | 36953 ft | 556 kts | 130° |
| 2026-04-25 16:59 | 20.98807 | -29.06544 | 36915 ft | 556 kts | 130° |
| 2026-04-25 17:00 | 20.94337 | -28.99852 | 36927 ft | 555 kts | 130° |
| 2026-04-25 17:00 | 20.89840 | -28.93126 | 36932 ft | 555 kts | 130° |
| 2026-04-25 17:01 | 20.85355 | -28.86427 | 36944 ft | 554 kts | 130° |
| 2026-04-25 17:01 | 20.80899 | -28.79780 | 36948 ft | 553 kts | 130° |
| 2026-04-25 17:02 | 20.76395 | -28.73069 | 36944 ft | 552 kts | 130° |
| 2026-04-25 17:02 | 20.71952 | -28.66454 | 36942 ft | 552 kts | 130° |
| 2026-04-25 17:03 | 20.67482 | -28.59809 | 36941 ft | 551 kts | 130° |
| 2026-04-25 17:03 | 20.63012 | -28.53173 | 36941 ft | 551 kts | 130° |
| 2026-04-25 17:04 | 20.58522 | -28.46513 | 36941 ft | 550 kts | 130° |
| 2026-04-25 17:04 | 20.54074 | -28.39922 | 36941 ft | 549 kts | 130° |
| 2026-04-25 17:05 | 20.49610 | -28.33316 | 36938 ft | 548 kts | 130° |
| 2026-04-25 17:05 | 20.42968 | -28.23503 | 36940 ft | 546 kts | 130° |
| 2026-04-25 17:06 | 20.38501 | -28.16910 | 36940 ft | 546 kts | 130° |
| 2026-04-25 17:06 | 20.34069 | -28.10378 | 36940 ft | 545 kts | 130° |
| 2026-04-25 17:07 | 20.29656 | -28.03881 | 36941 ft | 545 kts | 130° |
| 2026-04-25 17:07 | 20.25200 | -27.97329 | 36941 ft | 544 kts | 130° |
| 2026-04-25 17:08 | 20.20815 | -27.90809 | 36935 ft | 546 kts | 126° |
| 2026-04-25 17:08 | 20.17132 | -27.83728 | 36940 ft | 548 kts | 120° |
| 2026-04-25 17:09 | 20.13271 | -27.76760 | 36939 ft | 544 kts | 128° |
| 2026-04-25 17:09 | 20.08880 | -27.70281 | 36940 ft | 542 kts | 130° |
| 2026-04-25 17:10 | 20.04433 | -27.63829 | 36940 ft | 543 kts | 130° |
| 2026-04-25 17:10 | 19.99970 | -27.57337 | 36940 ft | 543 kts | 130° |
| 2026-04-25 17:11 | 19.95535 | -27.50870 | 36940 ft | 543 kts | 130° |
| 2026-04-25 17:11 | 19.91093 | -27.44396 | 36939 ft | 543 kts | 130° |
| 2026-04-25 17:12 | 19.86652 | -27.37932 | 36939 ft | 542 kts | 130° |
| 2026-04-25 17:12 | 19.82202 | -27.31458 | 36937 ft | 540 kts | 130° |
| 2026-04-25 17:13 | 19.78533 | -27.26124 | 36939 ft | 540 kts | 130° |
| 2026-04-25 17:13 | 19.73368 | -27.18627 | 36940 ft | 539 kts | 130° |
| 2026-04-25 17:14 | 19.68925 | -27.12187 | 36940 ft | 539 kts | 130° |
| 2026-04-25 17:14 | 19.64516 | -27.05801 | 36940 ft | 538 kts | 130° |
| 2026-04-25 17:15 | 19.60100 | -26.99411 | 36939 ft | 538 kts | 130° |
| 2026-04-25 17:15 | 19.55665 | -26.93002 | 36939 ft | 538 kts | 130° |
| 2026-04-25 17:16 | 19.51244 | -26.86620 | 36939 ft | 538 kts | 130° |
| 2026-04-25 17:16 | 19.46826 | -26.80249 | 36939 ft | 537 kts | 130° |
| 2026-04-25 17:17 | 19.42429 | -26.73911 | 36939 ft | 537 kts | 130° |
| 2026-04-25 17:17 | 19.38006 | -26.67544 | 36939 ft | 537 kts | 130° |
| 2026-04-25 17:18 | 19.33553 | -26.61140 | 36939 ft | 537 kts | 130° |
| 2026-04-25 17:18 | 19.29148 | -26.54813 | 36939 ft | 537 kts | 130° |
| 2026-04-25 17:19 | 19.24729 | -26.48473 | 36939 ft | 536 kts | 130° |
| 2026-04-25 17:19 | 19.20291 | -26.42111 | 36939 ft | 536 kts | 130° |
| 2026-04-25 17:20 | 19.15869 | -26.35778 | 36940 ft | 535 kts | 130° |
| 2026-04-25 17:20 | 19.11445 | -26.29446 | 36940 ft | 534 kts | 130° |
| 2026-04-25 17:21 | 19.07047 | -26.23159 | 36941 ft | 534 kts | 130° |
| 2026-04-25 17:21 | 19.02635 | -26.16856 | 36942 ft | 534 kts | 130° |
| 2026-04-25 17:22 | 18.98949 | -26.11594 | 36943 ft | 534 kts | 130° |
| 2026-04-25 17:22 | 18.93810 | -26.04258 | 36943 ft | 533 kts | 130° |
| 2026-04-25 17:23 | 18.89421 | -25.97934 | 36943 ft | 533 kts | 130° |
| 2026-04-25 17:23 | 18.85051 | -25.91626 | 36943 ft | 532 kts | 130° |
| 2026-04-25 17:24 | 18.80689 | -25.85334 | 36943 ft | 532 kts | 130° |
| 2026-04-25 17:24 | 18.76343 | -25.79075 | 36943 ft | 531 kts | 130° |
| 2026-04-25 17:25 | 18.71973 | -25.72789 | 36943 ft | 531 kts | 130° |
| 2026-04-25 17:25 | 18.67609 | -25.66516 | 36943 ft | 530 kts | 130° |
| 2026-04-25 17:26 | 18.63233 | -25.60233 | 36942 ft | 530 kts | 130° |
| 2026-04-25 17:26 | 18.58895 | -25.54010 | 36942 ft | 529 kts | 130° |
| 2026-04-25 17:27 | 18.54533 | -25.47760 | 36942 ft | 529 kts | 130° |
| 2026-04-25 17:27 | 18.50907 | -25.42569 | 36943 ft | 528 kts | 130° |
| 2026-04-25 17:28 | 18.45838 | -25.35319 | 36942 ft | 528 kts | 130° |
| 2026-04-25 17:28 | 18.41489 | -25.29105 | 36941 ft | 528 kts | 130° |
| 2026-04-25 17:29 | 18.37121 | -25.22872 | 36942 ft | 528 kts | 130° |
| 2026-04-25 17:29 | 18.32778 | -25.16679 | 36942 ft | 529 kts | 130° |
| 2026-04-25 17:30 | 18.28409 | -25.10453 | 36943 ft | 529 kts | 130° |
| 2026-04-25 17:30 | 18.24037 | -25.04231 | 36942 ft | 529 kts | 130° |
| 2026-04-25 17:31 | 18.19671 | -24.98023 | 36942 ft | 529 kts | 130° |
| 2026-04-25 17:31 | 18.15290 | -24.91799 | 36943 ft | 529 kts | 130° |
| 2026-04-25 17:32 | 18.10915 | -24.85590 | 36943 ft | 529 kts | 130° |
| 2026-04-25 17:32 | 18.06546 | -24.79395 | 36943 ft | 529 kts | 130° |
| 2026-04-25 17:33 | 18.02161 | -24.73183 | 36943 ft | 529 kts | 130° |
| 2026-04-25 17:33 | 17.97808 | -24.67022 | 36945 ft | 528 kts | 130° |
| 2026-04-25 17:34 | 17.93428 | -24.60831 | 36947 ft | 527 kts | 130° |
| 2026-04-25 17:34 | 17.89060 | -24.54661 | 36945 ft | 526 kts | 130° |
| 2026-04-25 17:35 | 17.84720 | -24.48531 | 36942 ft | 526 kts | 130° |
| 2026-04-25 17:35 | 17.80358 | -24.42375 | 36941 ft | 526 kts | 130° |
| 2026-04-25 17:36 | 17.75987 | -24.36212 | 36942 ft | 526 kts | 130° |
| 2026-04-25 17:36 | 17.71626 | -24.30072 | 36940 ft | 526 kts | 130° |
| 2026-04-25 17:37 | 17.67206 | -24.23927 | 36942 ft | 526 kts | 130° |
| 2026-04-25 17:37 | 17.62802 | -24.17827 | 36942 ft | 527 kts | 130° |
| 2026-04-25 17:38 | 17.59123 | -24.12728 | 36942 ft | 527 kts | 130° |
| 2026-04-25 17:38 | 17.53987 | -24.05607 | 36941 ft | 527 kts | 130° |
| 2026-04-25 17:39 | 17.49544 | -23.99450 | 36940 ft | 526 kts | 130° |
| 2026-04-25 17:39 | 17.45140 | -23.93353 | 36940 ft | 526 kts | 130° |
| 2026-04-25 17:40 | 17.40715 | -23.87233 | 36940 ft | 526 kts | 130° |
| 2026-04-25 17:40 | 17.36307 | -23.81141 | 36940 ft | 526 kts | 130° |
| 2026-04-25 17:41 | 17.31864 | -23.75008 | 36940 ft | 526 kts | 130° |
| 2026-04-25 17:41 | 17.27468 | -23.68943 | 36940 ft | 526 kts | 130° |
| 2026-04-25 17:42 | 17.23023 | -23.62816 | 36940 ft | 525 kts | 130° |
| 2026-04-25 17:42 | 17.18631 | -23.56769 | 36940 ft | 525 kts | 130° |
| 2026-04-25 17:43 | 17.14188 | -23.50655 | 36940 ft | 525 kts | 130° |
| 2026-04-25 17:43 | 17.09774 | -23.44588 | 36940 ft | 525 kts | 130° |
| 2026-04-25 17:44 | 17.05353 | -23.38516 | 36939 ft | 525 kts | 130° |
| 2026-04-25 17:44 | 17.00954 | -23.32477 | 36936 ft | 524 kts | 130° |
| 2026-04-25 17:45 | 16.97277 | -23.27435 | 36937 ft | 524 kts | 130° |
| 2026-04-25 17:45 | 16.92125 | -23.20372 | 36938 ft | 524 kts | 130° |
| 2026-04-25 17:46 | 16.87716 | -23.14337 | 36938 ft | 524 kts | 130° |
| 2026-04-25 17:46 | 16.83288 | -23.08276 | 36939 ft | 524 kts | 130° |
| 2026-04-25 17:47 | 16.78877 | -23.02225 | 36939 ft | 524 kts | 129° |
| 2026-04-25 17:47 | 16.74875 | -22.95859 | 36939 ft | 526 kts | 122° |
| 2026-04-25 17:48 | 16.70234 | -22.85522 | 36939 ft | 529 kts | 111° |
| 2026-04-25 17:49 | 16.67742 | -22.78315 | 36939 ft | 529 kts | 111° |
| 2026-04-25 17:49 | 16.65257 | -22.71098 | 36939 ft | 529 kts | 111° |
| 2026-04-25 17:50 | 16.62754 | -22.63892 | 36939 ft | 529 kts | 111° |
| 2026-04-25 17:50 | 16.60253 | -22.56723 | 36940 ft | 530 kts | 111° |
| 2026-04-25 17:51 | 16.57730 | -22.49511 | 36940 ft | 530 kts | 111° |
| 2026-04-25 17:51 | 16.55213 | -22.42325 | 36940 ft | 530 kts | 110° |
| 2026-04-25 17:52 | 16.52692 | -22.35140 | 36939 ft | 530 kts | 110° |
| 2026-04-25 17:52 | 16.50165 | -22.27937 | 36938 ft | 530 kts | 111° |
| 2026-04-25 17:53 | 16.47637 | -22.20742 | 36939 ft | 530 kts | 110° |
| 2026-04-25 17:53 | 16.45109 | -22.13561 | 36938 ft | 530 kts | 110° |
| 2026-04-25 17:54 | 16.42553 | -22.06308 | 36939 ft | 530 kts | 110° |
| 2026-04-25 17:54 | 16.40010 | -21.99098 | 36940 ft | 529 kts | 110° |
| 2026-04-25 17:55 | 16.37480 | -21.91935 | 36939 ft | 529 kts | 110° |
| 2026-04-25 17:55 | 16.34935 | -21.84738 | 36938 ft | 529 kts | 110° |
| 2026-04-25 17:56 | 16.32402 | -21.77579 | 36939 ft | 529 kts | 110° |
| 2026-04-25 17:56 | 16.29856 | -21.70389 | 36939 ft | 529 kts | 110° |
| 2026-04-25 17:57 | 16.27298 | -21.63212 | 36938 ft | 529 kts | 110° |
| 2026-04-25 17:57 | 16.24720 | -21.56050 | 36937 ft | 529 kts | 111° |
| 2026-04-25 17:58 | 16.22152 | -21.48915 | 36935 ft | 529 kts | 110° |
| 2026-04-25 17:58 | 16.19574 | -21.41749 | 36934 ft | 529 kts | 111° |
| 2026-04-25 17:59 | 16.16996 | -21.34590 | 36932 ft | 530 kts | 111° |
| 2026-04-25 17:59 | 16.14413 | -21.27427 | 36930 ft | 530 kts | 111° |
| 2026-04-25 18:00 | 16.12257 | -21.21455 | 36929 ft | 530 kts | 111° |
| 2026-04-25 18:00 | 16.09248 | -21.13126 | 36928 ft | 530 kts | 111° |
| 2026-04-25 18:01 | 16.06654 | -21.05953 | 36924 ft | 530 kts | 111° |
| 2026-04-25 18:01 | 16.04058 | -20.98786 | 36918 ft | 530 kts | 111° |
| 2026-04-25 18:02 | 16.01467 | -20.91639 | 36912 ft | 530 kts | 111° |
| 2026-04-25 18:02 | 15.98869 | -20.84487 | 36909 ft | 530 kts | 111° |
| 2026-04-25 18:03 | 15.96277 | -20.77359 | 36910 ft | 529 kts | 111° |
| 2026-04-25 18:03 | 15.93679 | -20.70221 | 36909 ft | 527 kts | 111° |
| 2026-04-25 18:04 | 15.91092 | -20.63116 | 36904 ft | 526 kts | 111° |
| 2026-04-25 18:04 | 15.88521 | -20.56064 | 36901 ft | 526 kts | 111° |
| 2026-04-25 18:05 | 15.85922 | -20.48944 | 36900 ft | 526 kts | 111° |
| 2026-04-25 18:05 | 15.83340 | -20.41878 | 36898 ft | 527 kts | 111° |
| 2026-04-25 18:06 | 15.80742 | -20.34776 | 36896 ft | 527 kts | 111° |
| 2026-04-25 18:06 | 15.78148 | -20.27694 | 36893 ft | 527 kts | 111° |
| 2026-04-25 18:07 | 15.75536 | -20.20566 | 36892 ft | 527 kts | 111° |
| 2026-04-25 18:07 | 15.72943 | -20.13500 | 36890 ft | 527 kts | 111° |
| 2026-04-25 18:08 | 15.70337 | -20.06400 | 36878 ft | 527 kts | 111° |
| 2026-04-25 18:08 | 15.67729 | -19.99304 | 36872 ft | 528 kts | 111° |
| 2026-04-25 18:09 | 15.65174 | -19.92187 | 36883 ft | 528 kts | 111° |
| 2026-04-25 18:09 | 15.62632 | -19.85045 | 36884 ft | 528 kts | 111° |
| 2026-04-25 18:10 | 15.60098 | -19.77945 | 36882 ft | 528 kts | 111° |
| 2026-04-25 18:10 | 15.57550 | -19.70821 | 36880 ft | 527 kts | 111° |
| 2026-04-25 18:11 | 15.54999 | -19.63693 | 36876 ft | 527 kts | 111° |
| 2026-04-25 18:11 | 15.52460 | -19.56609 | 36874 ft | 527 kts | 111° |
| 2026-04-25 18:12 | 15.49900 | -19.49467 | 36872 ft | 527 kts | 111° |
| 2026-04-25 18:12 | 15.47350 | -19.42412 | 36869 ft | 526 kts | 112° |
| 2026-04-25 18:13 | 15.44308 | -19.35517 | 36868 ft | 525 kts | 117° |
| 2026-04-25 18:13 | 15.41043 | -19.28778 | 36859 ft | 523 kts | 118° |
| 2026-04-25 18:14 | 15.37827 | -19.22149 | 36473 ft | 505 kts | 118° |
| 2026-04-25 18:14 | 15.36266 | -19.18921 | 36268 ft | 501 kts | 118° |
| 2026-04-25 18:14 | 15.34722 | -19.15730 | 35999 ft | 499 kts | 117° |
| 2026-04-25 18:14 | 15.33164 | -19.12509 | 35526 ft | 498 kts | 117° |
| 2026-04-25 18:15 | 15.31625 | -19.09328 | 34926 ft | 500 kts | 117° |
| 2026-04-25 18:15 | 15.30058 | -19.06090 | 34278 ft | 502 kts | 117° |
| 2026-04-25 18:15 | 15.28501 | -19.02873 | 33625 ft | 505 kts | 117° |
| 2026-04-25 18:15 | 15.26929 | -18.99627 | 32878 ft | 508 kts | 117° |
| 2026-04-25 18:16 | 15.25343 | -18.96356 | 32156 ft | 509 kts | 117° |
| 2026-04-25 18:16 | 15.23751 | -18.93072 | 31448 ft | 510 kts | 117° |
| 2026-04-25 18:16 | 15.20580 | -18.86533 | 30045 ft | 512 kts | 116° |
| 2026-04-25 18:17 | 15.18988 | -18.83250 | 29359 ft | 512 kts | 116° |
| 2026-04-25 18:17 | 15.17372 | -18.79922 | 28675 ft | 512 kts | 116° |
| 2026-04-25 18:17 | 15.15785 | -18.76652 | 28016 ft | 513 kts | 116° |
| 2026-04-25 18:17 | 15.14186 | -18.73361 | 27339 ft | 513 kts | 116° |
| 2026-04-25 18:18 | 15.12592 | -18.70078 | 26660 ft | 513 kts | 116° |
| 2026-04-25 18:18 | 15.10996 | -18.66793 | 26090 ft | 509 kts | 116° |
| 2026-04-25 18:18 | 15.09412 | -18.63537 | 25622 ft | 504 kts | 116° |
| 2026-04-25 18:18 | 15.07843 | -18.60311 | 25138 ft | 500 kts | 116° |
| 2026-04-25 18:19 | 15.06300 | -18.57138 | 24703 ft | 495 kts | 116° |
| 2026-04-25 18:19 | 15.04759 | -18.53972 | 24284 ft | 490 kts | 116° |
| 2026-04-25 18:19 | 15.03234 | -18.50840 | 23878 ft | 485 kts | 116° |
| 2026-04-25 18:19 | 15.01728 | -18.47751 | 23502 ft | 480 kts | 116° |
| 2026-04-25 18:20 | 15.00235 | -18.44688 | 23109 ft | 476 kts | 116° |
| 2026-04-25 18:20 | 14.98753 | -18.41649 | 22702 ft | 472 kts | 116° |
| 2026-04-25 18:20 | 14.97283 | -18.38637 | 22290 ft | 468 kts | 116° |
| 2026-04-25 18:20 | 14.95815 | -18.35630 | 21872 ft | 465 kts | 116° |
| 2026-04-25 18:21 | 14.94374 | -18.32678 | 21444 ft | 461 kts | 117° |
| 2026-04-25 18:21 | 14.92943 | -18.29749 | 21009 ft | 457 kts | 117° |
| 2026-04-25 18:21 | 14.91509 | -18.26814 | 20566 ft | 454 kts | 117° |
| 2026-04-25 18:21 | 14.90100 | -18.23932 | 20124 ft | 450 kts | 117° |
| 2026-04-25 18:22 | 14.88685 | -18.21036 | 19661 ft | 446 kts | 117° |
| 2026-04-25 18:22 | 14.87765 | -18.19155 | 19355 ft | 443 kts | 117° |
| 2026-04-25 18:22 | 14.85920 | -18.15384 | 18733 ft | 438 kts | 117° |
| 2026-04-25 18:22 | 14.84553 | -18.12593 | 18268 ft | 434 kts | 117° |
| 2026-04-25 18:23 | 14.83201 | -18.09832 | 17808 ft | 430 kts | 117° |
| 2026-04-25 18:23 | 14.81860 | -18.07096 | 17352 ft | 426 kts | 117° |
| 2026-04-25 18:23 | 14.80518 | -18.04358 | 16893 ft | 423 kts | 117° |
| 2026-04-25 18:23 | 14.79200 | -18.01671 | 16442 ft | 420 kts | 117° |
| 2026-04-25 18:24 | 14.77898 | -17.99016 | 15993 ft | 417 kts | 117° |
| 2026-04-25 18:24 | 14.76585 | -17.96340 | 15540 ft | 414 kts | 118° |
| 2026-04-25 18:24 | 14.75290 | -17.93702 | 15091 ft | 411 kts | 118° |
| 2026-04-25 18:24 | 14.74015 | -17.91106 | 14652 ft | 407 kts | 118° |
| 2026-04-25 18:25 | 14.72734 | -17.88499 | 14221 ft | 404 kts | 118° |
| 2026-04-25 18:25 | 14.71471 | -17.85930 | 13801 ft | 400 kts | 118° |
| 2026-04-25 18:25 | 14.70206 | -17.83357 | 13378 ft | 397 kts | 118° |
| 2026-04-25 18:25 | 14.68974 | -17.80852 | 12965 ft | 393 kts | 118° |
| 2026-04-25 18:26 | 14.67733 | -17.78328 | 12543 ft | 389 kts | 118° |
| 2026-04-25 18:26 | 14.66526 | -17.75872 | 12129 ft | 386 kts | 118° |
| 2026-04-25 18:26 | 14.65322 | -17.73424 | 11713 ft | 382 kts | 118° |
| 2026-04-25 18:26 | 14.64125 | -17.70993 | 11295 ft | 379 kts | 118° |
| 2026-04-25 18:27 | 14.62936 | -17.68576 | 10881 ft | 375 kts | 118° |
| 2026-04-25 18:27 | 14.61751 | -17.66172 | 10601 ft | 366 kts | 118° |
| 2026-04-25 18:27 | 14.60626 | -17.63882 | 10502 ft | 351 kts | 118° |
| 2026-04-25 18:27 | 14.59544 | -17.61683 | 10386 ft | 338 kts | 118° |
| 2026-04-25 18:28 | 14.58490 | -17.59545 | 10270 ft | 326 kts | 118° |
| 2026-04-25 18:28 | 14.57488 | -17.57515 | 10161 ft | 314 kts | 118° |
| 2026-04-25 18:28 | 14.56518 | -17.55550 | 10059 ft | 302 kts | 117° |
| 2026-04-25 18:29 | 14.54671 | -17.51805 | 9888 ft | 284 kts | 117° |
| 2026-04-25 18:29 | 14.53786 | -17.50013 | 9696 ft | 283 kts | 117° |
| 2026-04-25 18:30 | 14.51096 | -17.44572 | 8740 ft | 283 kts | 117° |
| 2026-04-25 18:30 | 14.50212 | -17.42785 | 8436 ft | 282 kts | 117° |
| 2026-04-25 18:30 | 14.49314 | -17.40970 | 8129 ft | 281 kts | 117° |
| 2026-04-25 18:30 | 14.48430 | -17.39183 | 7827 ft | 281 kts | 116° |
| 2026-04-25 18:31 | 14.47545 | -17.37391 | 7525 ft | 280 kts | 116° |
| 2026-04-25 18:31 | 14.46664 | -17.35609 | 7226 ft | 280 kts | 116° |
| 2026-04-25 18:31 | 14.45780 | -17.33822 | 6926 ft | 279 kts | 116° |
| 2026-04-25 18:31 | 14.44902 | -17.32046 | 6629 ft | 278 kts | 116° |
| 2026-04-25 18:32 | 14.44014 | -17.30251 | 6328 ft | 277 kts | 116° |
| 2026-04-25 18:32 | 14.43155 | -17.28507 | 6036 ft | 275 kts | 116° |
| 2026-04-25 18:32 | 14.42287 | -17.26749 | 5741 ft | 274 kts | 116° |
| 2026-04-25 18:32 | 14.41421 | -17.25004 | 5481 ft | 271 kts | 116° |
| 2026-04-25 18:33 | 14.40573 | -17.23301 | 5273 ft | 265 kts | 116° |
| 2026-04-25 18:33 | 14.39739 | -17.21623 | 5025 ft | 261 kts | 116° |
| 2026-04-25 18:33 | 14.38919 | -17.19970 | 4788 ft | 257 kts | 116° |
| 2026-04-25 18:33 | 14.38106 | -17.18322 | 4625 ft | 256 kts | 113° |
| 2026-04-25 18:34 | 14.37612 | -17.16579 | 4489 ft | 254 kts | 94° |
| 2026-04-25 18:34 | 14.37563 | -17.14785 | 4318 ft | 250 kts | 87° |
| 2026-04-25 18:34 | 14.37601 | -17.12969 | 3978 ft | 251 kts | 86° |
| 2026-04-25 18:34 | 14.37642 | -17.11191 | 3667 ft | 250 kts | 86° |
| 2026-04-25 18:35 | 14.37713 | -17.09395 | 3361 ft | 248 kts | 77° |
| 2026-04-25 18:35 | 14.38450 | -17.07871 | 3045 ft | 240 kts | 40° |
| 2026-04-25 18:35 | 14.39912 | -17.07067 | 2995 ft | 237 kts | 10° |
| 2026-04-25 18:35 | 14.41559 | -17.06934 | 2998 ft | 237 kts | 359° |
| 2026-04-25 18:36 | 14.43192 | -17.06982 | 2982 ft | 236 kts | 358° |
| 2026-04-25 18:36 | 14.44853 | -17.07041 | 2974 ft | 236 kts | 358° |
| 2026-04-25 18:36 | 14.46506 | -17.07079 | 2971 ft | 235 kts | 359° |
| 2026-04-25 18:36 | 14.48148 | -17.07103 | 2980 ft | 235 kts | 359° |
| 2026-04-25 18:37 | 14.49769 | -17.07117 | 2975 ft | 226 kts | 359° |
| 2026-04-25 18:37 | 14.51307 | -17.07130 | 2875 ft | 217 kts | 359° |
| 2026-04-25 18:37 | 14.52782 | -17.07146 | 2631 ft | 207 kts | 359° |
| 2026-04-25 18:37 | 14.54191 | -17.07160 | 2396 ft | 193 kts | 359° |
| 2026-04-25 18:38 | 14.55498 | -17.07173 | 2135 ft | 182 kts | 359° |
| 2026-04-25 18:38 | 14.56733 | -17.07186 | 1901 ft | 171 kts | 359° |
| 2026-04-25 18:38 | 14.57878 | -17.07196 | 1691 ft | 159 kts | 359° |
| 2026-04-25 18:38 | 14.58954 | -17.07205 | 1500 ft | 148 kts | 359° |
| 2026-04-25 18:39 | 14.59981 | -17.07213 | 1331 ft | 146 kts | 359° |
| 2026-04-25 18:39 | 14.60988 | -17.07222 | 1160 ft | 145 kts | 359° |
| 2026-04-25 18:39 | 14.61993 | -17.07232 | 979 ft | 143 kts | 358° |
| 2026-04-25 18:39 | 14.62996 | -17.07243 | 795 ft | 142 kts | 358° |
| 2026-04-25 18:40 | 14.63988 | -17.07254 | 612 ft | 142 kts | 358° |
| 2026-04-25 18:40 | 14.64979 | -17.07256 | 439 ft | 141 kts | 359° |
| 2026-04-25 18:40 | 14.65944 | -17.07268 | 304 ft | 131 kts | 358° |
| 2026-04-25 18:40 | 14.66709 | -17.07279 | 308 ft | 81 kts | 356° |
| 2026-04-25 18:41 | 14.67210 | -17.07282 | 313 ft | 67 kts | 359° |
| 2026-04-25 18:41 | 14.67573 | -17.07268 | 306 ft | 36 kts | 6° |
| 2026-04-25 18:41 | 14.67774 | -17.07204 | 299 ft | 14 kts | 30° |
| 2026-04-25 18:41 | 14.67823 | -17.07171 | 297 ft | 0 kts | 40° |
| 2026-04-25 18:42 | 14.67828 | -17.07166 | 297 ft | 4 kts | 40° |
| 2026-04-25 18:43 | 14.67894 | -17.07125 | 294 ft | 16 kts | 24° |
| 2026-04-25 18:43 | 14.68005 | -17.07093 | 288 ft | 14 kts | 1° |
| 2026-04-25 18:43 | 14.68065 | -17.07028 | 285 ft | 10 kts | 107° |
| 2026-04-25 18:43 | 14.68063 | -17.06989 | 284 ft | 7 kts | 73° |
| 2026-04-25 18:44 | 14.68080 | -17.06918 | 281 ft | 11 kts | 87° |
| 2026-04-25 18:44 | 14.68080 | -17.06891 | 280 ft | 0 kts | 90° |